<?xml version="1.0" encoding="UTF-8"?>
<gpx xmlns="http://www.topografix.com/GPX/1/1" xmlns:xsi="http://www.w3.org/2001/XMLSchema-instance" version="1.1" xsi:schemaLocation="http://www.topografix.com/GPX/1/1 http://www.topografix.com/GPX/1/1/gpx.xsd">
  <metadata>
    <name>Saugerties Triathlon 2023 - Olympic Aquabike</name>
  </metadata>
  <trk>
    <name>Saugerties Triathlon 2023 - Olympic Aquabike</name>
    <trkseg>
      <trkpt lat="42.072977" lon="-73.950943">
        <ele>22.904154</ele>
        <time>2024-09-15T09:20:00.000Z</time>
      </trkpt>
      <trkpt lat="42.073001" lon="-73.950932">
        <ele>22.904158</ele>
        <time>2024-09-15T09:20:00.000Z</time>
      </trkpt>
      <trkpt lat="42.073167" lon="-73.950848">
        <ele>22.904156</ele>
        <time>2024-09-15T09:20:02.000Z</time>
      </trkpt>
      <trkpt lat="42.073652" lon="-73.950541">
        <ele>22.90416</ele>
        <time>2024-09-15T09:20:08.000Z</time>
      </trkpt>
      <trkpt lat="42.073735" lon="-73.950517">
        <ele>22.904162</ele>
        <time>2024-09-15T09:20:09.000Z</time>
      </trkpt>
      <trkpt lat="42.073803" lon="-73.950521">
        <ele>22.904163</ele>
        <time>2024-09-15T09:20:10.000Z</time>
      </trkpt>
      <trkpt lat="42.074054" lon="-73.950624">
        <ele>24.632078</ele>
        <time>2024-09-15T09:20:13.000Z</time>
      </trkpt>
      <trkpt lat="42.074368" lon="-73.950797">
        <ele>27.15699</ele>
        <time>2024-09-15T09:20:17.000Z</time>
      </trkpt>
      <trkpt lat="42.074924" lon="-73.951113">
        <ele>31.41895</ele>
        <time>2024-09-15T09:20:24.000Z</time>
      </trkpt>
      <trkpt lat="42.075405" lon="-73.95132">
        <ele>35.053287</ele>
        <time>2024-09-15T09:20:30.000Z</time>
      </trkpt>
      <trkpt lat="42.075686" lon="-73.951427">
        <ele>36.613733</ele>
        <time>2024-09-15T09:20:33.000Z</time>
      </trkpt>
      <trkpt lat="42.075849" lon="-73.9515">
        <ele>37.35892</ele>
        <time>2024-09-15T09:20:35.000Z</time>
      </trkpt>
      <trkpt lat="42.076025" lon="-73.951576">
        <ele>38.180416</ele>
        <time>2024-09-15T09:20:37.000Z</time>
      </trkpt>
      <trkpt lat="42.076295" lon="-73.951709">
        <ele>39.537114</ele>
        <time>2024-09-15T09:20:40.000Z</time>
      </trkpt>
      <trkpt lat="42.0767" lon="-73.951894">
        <ele>41.481889</ele>
        <time>2024-09-15T09:20:45.000Z</time>
      </trkpt>
      <trkpt lat="42.077151" lon="-73.952116">
        <ele>43.613683</ele>
        <time>2024-09-15T09:20:50.000Z</time>
      </trkpt>
      <trkpt lat="42.077775" lon="-73.952422">
        <ele>44.483468</ele>
        <time>2024-09-15T09:20:57.000Z</time>
      </trkpt>
      <trkpt lat="42.078239" lon="-73.951083">
        <ele>45.49853</ele>
        <time>2024-09-15T09:21:09.000Z</time>
      </trkpt>
      <trkpt lat="42.078602" lon="-73.950042">
        <ele>45.343062</ele>
        <time>2024-09-15T09:21:18.000Z</time>
      </trkpt>
      <trkpt lat="42.079008" lon="-73.948841">
        <ele>45.029891</ele>
        <time>2024-09-15T09:21:29.000Z</time>
      </trkpt>
      <trkpt lat="42.079344" lon="-73.94792">
        <ele>44.824491</ele>
        <time>2024-09-15T09:21:37.000Z</time>
      </trkpt>
      <trkpt lat="42.079599" lon="-73.947214">
        <ele>44.667113</ele>
        <time>2024-09-15T09:21:43.000Z</time>
      </trkpt>
      <trkpt lat="42.0797" lon="-73.946876">
        <ele>44.596343</ele>
        <time>2024-09-15T09:21:46.000Z</time>
      </trkpt>
      <trkpt lat="42.079801" lon="-73.946533">
        <ele>44.583556</ele>
        <time>2024-09-15T09:21:49.000Z</time>
      </trkpt>
      <trkpt lat="42.079904" lon="-73.946078">
        <ele>45.225766</ele>
        <time>2024-09-15T09:21:53.000Z</time>
      </trkpt>
      <trkpt lat="42.079964" lon="-73.945801">
        <ele>45.600971</ele>
        <time>2024-09-15T09:21:55.000Z</time>
      </trkpt>
      <trkpt lat="42.080277" lon="-73.944312">
        <ele>47.716989</ele>
        <time>2024-09-15T09:22:08.000Z</time>
      </trkpt>
      <trkpt lat="42.080356" lon="-73.944126">
        <ele>48.012413</ele>
        <time>2024-09-15T09:22:10.000Z</time>
      </trkpt>
      <trkpt lat="42.080537" lon="-73.944086">
        <ele>48.344548</ele>
        <time>2024-09-15T09:22:12.000Z</time>
      </trkpt>
      <trkpt lat="42.080741" lon="-73.944125">
        <ele>48.700422</ele>
        <time>2024-09-15T09:22:14.000Z</time>
      </trkpt>
      <trkpt lat="42.081538" lon="-73.944086">
        <ele>50.179013</ele>
        <time>2024-09-15T09:22:23.000Z</time>
      </trkpt>
      <trkpt lat="42.08189" lon="-73.944025">
        <ele>50.819713</ele>
        <time>2024-09-15T09:22:27.000Z</time>
      </trkpt>
      <trkpt lat="42.082252" lon="-73.943968">
        <ele>50.649452</ele>
        <time>2024-09-15T09:22:31.000Z</time>
      </trkpt>
      <trkpt lat="42.082456" lon="-73.943924">
        <ele>50.166654</ele>
        <time>2024-09-15T09:22:33.000Z</time>
      </trkpt>
      <trkpt lat="42.08304" lon="-73.943831">
        <ele>48.811008</ele>
        <time>2024-09-15T09:22:40.000Z</time>
      </trkpt>
      <trkpt lat="42.083561" lon="-73.943727">
        <ele>47.5906</ele>
        <time>2024-09-15T09:22:46.000Z</time>
      </trkpt>
      <trkpt lat="42.083826" lon="-73.943627">
        <ele>46.930887</ele>
        <time>2024-09-15T09:22:49.000Z</time>
      </trkpt>
      <trkpt lat="42.084195" lon="-73.943387">
        <ele>45.610366</ele>
        <time>2024-09-15T09:22:54.000Z</time>
      </trkpt>
      <trkpt lat="42.084285" lon="-73.943301">
        <ele>45.274533</ele>
        <time>2024-09-15T09:22:55.000Z</time>
      </trkpt>
      <trkpt lat="42.084427" lon="-73.943192">
        <ele>44.722624</ele>
        <time>2024-09-15T09:22:57.000Z</time>
      </trkpt>
      <trkpt lat="42.085002" lon="-73.942662">
        <ele>42.469634</ele>
        <time>2024-09-15T09:23:05.000Z</time>
      </trkpt>
      <trkpt lat="42.085486" lon="-73.94235">
        <ele>41.175973</ele>
        <time>2024-09-15T09:23:11.000Z</time>
      </trkpt>
      <trkpt lat="42.086871" lon="-73.941814">
        <ele>41.252469</ele>
        <time>2024-09-15T09:23:27.000Z</time>
      </trkpt>
      <trkpt lat="42.087396" lon="-73.941725">
        <ele>41.517573</ele>
        <time>2024-09-15T09:23:33.000Z</time>
      </trkpt>
      <trkpt lat="42.088278" lon="-73.941616">
        <ele>42.250933</ele>
        <time>2024-09-15T09:23:43.000Z</time>
      </trkpt>
      <trkpt lat="42.088712" lon="-73.941469">
        <ele>42.639408</ele>
        <time>2024-09-15T09:23:48.000Z</time>
      </trkpt>
      <trkpt lat="42.089152" lon="-73.941206">
        <ele>43.093765</ele>
        <time>2024-09-15T09:23:53.000Z</time>
      </trkpt>
      <trkpt lat="42.089412" lon="-73.940974">
        <ele>43.412482</ele>
        <time>2024-09-15T09:23:56.000Z</time>
      </trkpt>
      <trkpt lat="42.089698" lon="-73.940668">
        <ele>43.801745</ele>
        <time>2024-09-15T09:24:00.000Z</time>
      </trkpt>
      <trkpt lat="42.090037" lon="-73.940267">
        <ele>44.249999</ele>
        <time>2024-09-15T09:24:05.000Z</time>
      </trkpt>
      <trkpt lat="42.090358" lon="-73.939962">
        <ele>44.721493</ele>
        <time>2024-09-15T09:24:09.000Z</time>
      </trkpt>
      <trkpt lat="42.090648" lon="-73.939806">
        <ele>45.425157</ele>
        <time>2024-09-15T09:24:12.000Z</time>
      </trkpt>
      <trkpt lat="42.090996" lon="-73.939723">
        <ele>46.203077</ele>
        <time>2024-09-15T09:24:16.000Z</time>
      </trkpt>
      <trkpt lat="42.091438" lon="-73.939629">
        <ele>47.198511</ele>
        <time>2024-09-15T09:24:21.000Z</time>
      </trkpt>
      <trkpt lat="42.091882" lon="-73.939612">
        <ele>48.214298</ele>
        <time>2024-09-15T09:24:26.000Z</time>
      </trkpt>
      <trkpt lat="42.092852" lon="-73.939691">
        <ele>50.389161</ele>
        <time>2024-09-15T09:24:37.000Z</time>
      </trkpt>
      <trkpt lat="42.09325" lon="-73.939741">
        <ele>51.256632</ele>
        <time>2024-09-15T09:24:41.000Z</time>
      </trkpt>
      <trkpt lat="42.094019" lon="-73.939946">
        <ele>52.833263</ele>
        <time>2024-09-15T09:24:50.000Z</time>
      </trkpt>
      <trkpt lat="42.094147" lon="-73.939978">
        <ele>52.994134</ele>
        <time>2024-09-15T09:24:51.000Z</time>
      </trkpt>
      <trkpt lat="42.09443" lon="-73.93997">
        <ele>53.334178</ele>
        <time>2024-09-15T09:24:54.000Z</time>
      </trkpt>
      <trkpt lat="42.09503" lon="-73.93981">
        <ele>54.04912</ele>
        <time>2024-09-15T09:25:01.000Z</time>
      </trkpt>
      <trkpt lat="42.095368" lon="-73.93967">
        <ele>54.457451</ele>
        <time>2024-09-15T09:25:05.000Z</time>
      </trkpt>
      <trkpt lat="42.095969" lon="-73.939423">
        <ele>54.479521</ele>
        <time>2024-09-15T09:25:12.000Z</time>
      </trkpt>
      <trkpt lat="42.096055" lon="-73.939384">
        <ele>54.39172</ele>
        <time>2024-09-15T09:25:13.000Z</time>
      </trkpt>
      <trkpt lat="42.096428" lon="-73.939231">
        <ele>54.056346</ele>
        <time>2024-09-15T09:25:17.000Z</time>
      </trkpt>
      <trkpt lat="42.096672" lon="-73.939184">
        <ele>53.851769</ele>
        <time>2024-09-15T09:25:20.000Z</time>
      </trkpt>
      <trkpt lat="42.097252" lon="-73.939072">
        <ele>53.335895</ele>
        <time>2024-09-15T09:25:27.000Z</time>
      </trkpt>
      <trkpt lat="42.097504" lon="-73.939028">
        <ele>52.895995</ele>
        <time>2024-09-15T09:25:30.000Z</time>
      </trkpt>
      <trkpt lat="42.098289" lon="-73.938889">
        <ele>50.676929</ele>
        <time>2024-09-15T09:25:39.000Z</time>
      </trkpt>
      <trkpt lat="42.099345" lon="-73.938817">
        <ele>47.852545</ele>
        <time>2024-09-15T09:25:51.000Z</time>
      </trkpt>
      <trkpt lat="42.099639" lon="-73.938749">
        <ele>47.296007</ele>
        <time>2024-09-15T09:25:54.000Z</time>
      </trkpt>
      <trkpt lat="42.100101" lon="-73.93858">
        <ele>46.340096</ele>
        <time>2024-09-15T09:25:59.000Z</time>
      </trkpt>
      <trkpt lat="42.10124" lon="-73.938103">
        <ele>44.606725</ele>
        <time>2024-09-15T09:26:12.000Z</time>
      </trkpt>
      <trkpt lat="42.101808" lon="-73.937829">
        <ele>44.438548</ele>
        <time>2024-09-15T09:26:19.000Z</time>
      </trkpt>
      <trkpt lat="42.102294" lon="-73.937614">
        <ele>44.293609</ele>
        <time>2024-09-15T09:26:25.000Z</time>
      </trkpt>
      <trkpt lat="42.102685" lon="-73.937529">
        <ele>44.195176</ele>
        <time>2024-09-15T09:26:29.000Z</time>
      </trkpt>
      <trkpt lat="42.103019" lon="-73.93751">
        <ele>44.175103</ele>
        <time>2024-09-15T09:26:33.000Z</time>
      </trkpt>
      <trkpt lat="42.103376" lon="-73.937542">
        <ele>44.152607</ele>
        <time>2024-09-15T09:26:37.000Z</time>
      </trkpt>
      <trkpt lat="42.103993" lon="-73.937702">
        <ele>44.115188</ele>
        <time>2024-09-15T09:26:44.000Z</time>
      </trkpt>
      <trkpt lat="42.105053" lon="-73.937907">
        <ele>43.909406</ele>
        <time>2024-09-15T09:26:56.000Z</time>
      </trkpt>
      <trkpt lat="42.105306" lon="-73.937929">
        <ele>43.842032</ele>
        <time>2024-09-15T09:26:59.000Z</time>
      </trkpt>
      <trkpt lat="42.10577" lon="-73.93791">
        <ele>43.708749</ele>
        <time>2024-09-15T09:27:04.000Z</time>
      </trkpt>
      <trkpt lat="42.105939" lon="-73.937901">
        <ele>43.661615</ele>
        <time>2024-09-15T09:27:06.000Z</time>
      </trkpt>
      <trkpt lat="42.107396" lon="-73.937793">
        <ele>43.878765</ele>
        <time>2024-09-15T09:27:22.000Z</time>
      </trkpt>
      <trkpt lat="42.10805" lon="-73.937703">
        <ele>44.011956</ele>
        <time>2024-09-15T09:27:29.000Z</time>
      </trkpt>
      <trkpt lat="42.108451" lon="-73.937611">
        <ele>43.913434</ele>
        <time>2024-09-15T09:27:34.000Z</time>
      </trkpt>
      <trkpt lat="42.108809" lon="-73.93743">
        <ele>43.819486</ele>
        <time>2024-09-15T09:27:38.000Z</time>
      </trkpt>
      <trkpt lat="42.109091" lon="-73.937279">
        <ele>43.746245</ele>
        <time>2024-09-15T09:27:41.000Z</time>
      </trkpt>
      <trkpt lat="42.109409" lon="-73.937078">
        <ele>43.65961</ele>
        <time>2024-09-15T09:27:45.000Z</time>
      </trkpt>
      <trkpt lat="42.111102" lon="-73.936073">
        <ele>44.422614</ele>
        <time>2024-09-15T09:28:06.000Z</time>
      </trkpt>
      <trkpt lat="42.111375" lon="-73.935964">
        <ele>44.616509</ele>
        <time>2024-09-15T09:28:09.000Z</time>
      </trkpt>
      <trkpt lat="42.111589" lon="-73.935927">
        <ele>44.884245</ele>
        <time>2024-09-15T09:28:11.000Z</time>
      </trkpt>
      <trkpt lat="42.111781" lon="-73.935921">
        <ele>45.1191</ele>
        <time>2024-09-15T09:28:13.000Z</time>
      </trkpt>
      <trkpt lat="42.112523" lon="-73.936186">
        <ele>46.067392</ele>
        <time>2024-09-15T09:28:22.000Z</time>
      </trkpt>
      <trkpt lat="42.112718" lon="-73.936231">
        <ele>46.303326</ele>
        <time>2024-09-15T09:28:24.000Z</time>
      </trkpt>
      <trkpt lat="42.113085" lon="-73.936249">
        <ele>46.776744</ele>
        <time>2024-09-15T09:28:28.000Z</time>
      </trkpt>
      <trkpt lat="42.113914" lon="-73.936175">
        <ele>47.100474</ele>
        <time>2024-09-15T09:28:37.000Z</time>
      </trkpt>
      <trkpt lat="42.114743" lon="-73.935971">
        <ele>47.426663</ele>
        <time>2024-09-15T09:28:46.000Z</time>
      </trkpt>
      <trkpt lat="42.116206" lon="-73.935638">
        <ele>47.286149</ele>
        <time>2024-09-15T09:29:02.000Z</time>
      </trkpt>
      <trkpt lat="42.116468" lon="-73.935529">
        <ele>47.244637</ele>
        <time>2024-09-15T09:29:05.000Z</time>
      </trkpt>
      <trkpt lat="42.116656" lon="-73.935427">
        <ele>47.224626</ele>
        <time>2024-09-15T09:29:07.000Z</time>
      </trkpt>
      <trkpt lat="42.116973" lon="-73.935177">
        <ele>47.497366</ele>
        <time>2024-09-15T09:29:11.000Z</time>
      </trkpt>
      <trkpt lat="42.117217" lon="-73.934966">
        <ele>47.707669</ele>
        <time>2024-09-15T09:29:14.000Z</time>
      </trkpt>
      <trkpt lat="42.117273" lon="-73.935253">
        <ele>47.872351</ele>
        <time>2024-09-15T09:29:16.000Z</time>
      </trkpt>
      <trkpt lat="42.117417" lon="-73.936775">
        <ele>48.418945</ele>
        <time>2024-09-15T09:29:29.000Z</time>
      </trkpt>
      <trkpt lat="42.117448" lon="-73.93715">
        <ele>48.291395</ele>
        <time>2024-09-15T09:29:32.000Z</time>
      </trkpt>
      <trkpt lat="42.117534" lon="-73.937667">
        <ele>48.112242</ele>
        <time>2024-09-15T09:29:36.000Z</time>
      </trkpt>
      <trkpt lat="42.117649" lon="-73.93799">
        <ele>47.995166</ele>
        <time>2024-09-15T09:29:39.000Z</time>
      </trkpt>
      <trkpt lat="42.118733" lon="-73.940049">
        <ele>45.994772</ele>
        <time>2024-09-15T09:30:00.000Z</time>
      </trkpt>
      <trkpt lat="42.119155" lon="-73.940924">
        <ele>45.163862</ele>
        <time>2024-09-15T09:30:09.000Z</time>
      </trkpt>
      <trkpt lat="42.120493" lon="-73.944348">
        <ele>44.640105</ele>
        <time>2024-09-15T09:30:41.000Z</time>
      </trkpt>
      <trkpt lat="42.120597" lon="-73.944693">
        <ele>44.652105</ele>
        <time>2024-09-15T09:30:44.000Z</time>
      </trkpt>
      <trkpt lat="42.12064" lon="-73.944923">
        <ele>44.660193</ele>
        <time>2024-09-15T09:30:46.000Z</time>
      </trkpt>
      <trkpt lat="42.12068" lon="-73.945132">
        <ele>44.716906</ele>
        <time>2024-09-15T09:30:48.000Z</time>
      </trkpt>
      <trkpt lat="42.120732" lon="-73.945264">
        <ele>44.778091</ele>
        <time>2024-09-15T09:30:49.000Z</time>
      </trkpt>
      <trkpt lat="42.120961" lon="-73.945577">
        <ele>44.934911</ele>
        <time>2024-09-15T09:30:53.000Z</time>
      </trkpt>
      <trkpt lat="42.12111" lon="-73.94595">
        <ele>45.096166</ele>
        <time>2024-09-15T09:30:56.000Z</time>
      </trkpt>
      <trkpt lat="42.121121" lon="-73.945974">
        <ele>45.105261</ele>
        <time>2024-09-15T09:30:56.000Z</time>
      </trkpt>
      <trkpt lat="42.121364" lon="-73.946526">
        <ele>45.345003</ele>
        <time>2024-09-15T09:31:01.000Z</time>
      </trkpt>
      <trkpt lat="42.12195" lon="-73.94788">
        <ele>46.165107</ele>
        <time>2024-09-15T09:31:14.000Z</time>
      </trkpt>
      <trkpt lat="42.122306" lon="-73.948619">
        <ele>46.711222</ele>
        <time>2024-09-15T09:31:21.000Z</time>
      </trkpt>
      <trkpt lat="42.122334" lon="-73.948666">
        <ele>46.748418</ele>
        <time>2024-09-15T09:31:21.000Z</time>
      </trkpt>
      <trkpt lat="42.122446" lon="-73.94819">
        <ele>47.05582</ele>
        <time>2024-09-15T09:31:25.000Z</time>
      </trkpt>
      <trkpt lat="42.122559" lon="-73.947845">
        <ele>47.4365</ele>
        <time>2024-09-15T09:31:28.000Z</time>
      </trkpt>
      <trkpt lat="42.122783" lon="-73.947541">
        <ele>47.85949</ele>
        <time>2024-09-15T09:31:32.000Z</time>
      </trkpt>
      <trkpt lat="42.123437" lon="-73.946961">
        <ele>48.906057</ele>
        <time>2024-09-15T09:31:41.000Z</time>
      </trkpt>
      <trkpt lat="42.123561" lon="-73.946767">
        <ele>49.150945</ele>
        <time>2024-09-15T09:31:43.000Z</time>
      </trkpt>
      <trkpt lat="42.123592" lon="-73.946671">
        <ele>49.259463</ele>
        <time>2024-09-15T09:31:44.000Z</time>
      </trkpt>
      <trkpt lat="42.123648" lon="-73.946482">
        <ele>49.455223</ele>
        <time>2024-09-15T09:31:46.000Z</time>
      </trkpt>
      <trkpt lat="42.123797" lon="-73.946253">
        <ele>49.514115</ele>
        <time>2024-09-15T09:31:49.000Z</time>
      </trkpt>
      <trkpt lat="42.124227" lon="-73.945618">
        <ele>49.675113</ele>
        <time>2024-09-15T09:31:56.000Z</time>
      </trkpt>
      <trkpt lat="42.124479" lon="-73.945276">
        <ele>49.768981</ele>
        <time>2024-09-15T09:32:00.000Z</time>
      </trkpt>
      <trkpt lat="42.125299" lon="-73.944363">
        <ele>49.812836</ele>
        <time>2024-09-15T09:32:12.000Z</time>
      </trkpt>
      <trkpt lat="42.12553" lon="-73.944123">
        <ele>49.755095</ele>
        <time>2024-09-15T09:32:15.000Z</time>
      </trkpt>
      <trkpt lat="42.12561" lon="-73.944027">
        <ele>49.734258</ele>
        <time>2024-09-15T09:32:16.000Z</time>
      </trkpt>
      <trkpt lat="42.12576" lon="-73.943901">
        <ele>49.698914</ele>
        <time>2024-09-15T09:32:18.000Z</time>
      </trkpt>
      <trkpt lat="42.126117" lon="-73.943556">
        <ele>49.60977</ele>
        <time>2024-09-15T09:32:23.000Z</time>
      </trkpt>
      <trkpt lat="42.126735" lon="-73.942993">
        <ele>49.312554</ele>
        <time>2024-09-15T09:32:31.000Z</time>
      </trkpt>
      <trkpt lat="42.127146" lon="-73.942728">
        <ele>49.070325</ele>
        <time>2024-09-15T09:32:36.000Z</time>
      </trkpt>
      <trkpt lat="42.127573" lon="-73.942532">
        <ele>48.831221</ele>
        <time>2024-09-15T09:32:41.000Z</time>
      </trkpt>
      <trkpt lat="42.127886" lon="-73.942415">
        <ele>48.653523</ele>
        <time>2024-09-15T09:32:45.000Z</time>
      </trkpt>
      <trkpt lat="42.128665" lon="-73.942309">
        <ele>48.329446</ele>
        <time>2024-09-15T09:32:54.000Z</time>
      </trkpt>
      <trkpt lat="42.129504" lon="-73.942098">
        <ele>47.98441</ele>
        <time>2024-09-15T09:33:03.000Z</time>
      </trkpt>
      <trkpt lat="42.129723" lon="-73.941968">
        <ele>47.895955</ele>
        <time>2024-09-15T09:33:06.000Z</time>
      </trkpt>
      <trkpt lat="42.129826" lon="-73.94185">
        <ele>47.982113</ele>
        <time>2024-09-15T09:33:08.000Z</time>
      </trkpt>
      <trkpt lat="42.129937" lon="-73.941503">
        <ele>48.25914</ele>
        <time>2024-09-15T09:33:11.000Z</time>
      </trkpt>
      <trkpt lat="42.130192" lon="-73.940059">
        <ele>49.361271</ele>
        <time>2024-09-15T09:33:23.000Z</time>
      </trkpt>
      <trkpt lat="42.130202" lon="-73.939921">
        <ele>49.466556</ele>
        <time>2024-09-15T09:33:24.000Z</time>
      </trkpt>
      <trkpt lat="42.130336" lon="-73.939162">
        <ele>49.869714</ele>
        <time>2024-09-15T09:33:30.000Z</time>
      </trkpt>
      <trkpt lat="42.130393" lon="-73.939027">
        <ele>49.928193</ele>
        <time>2024-09-15T09:33:31.000Z</time>
      </trkpt>
      <trkpt lat="42.130604" lon="-73.939156">
        <ele>50.053546</ele>
        <time>2024-09-15T09:33:34.000Z</time>
      </trkpt>
      <trkpt lat="42.13101" lon="-73.939214">
        <ele>50.273781</ele>
        <time>2024-09-15T09:33:39.000Z</time>
      </trkpt>
      <trkpt lat="42.131651" lon="-73.939331">
        <ele>50.615291</ele>
        <time>2024-09-15T09:33:46.000Z</time>
      </trkpt>
      <trkpt lat="42.131768" lon="-73.939397">
        <ele>50.594006</ele>
        <time>2024-09-15T09:33:47.000Z</time>
      </trkpt>
      <trkpt lat="42.132021" lon="-73.939573">
        <ele>50.476271</ele>
        <time>2024-09-15T09:33:50.000Z</time>
      </trkpt>
      <trkpt lat="42.132127" lon="-73.939691">
        <ele>50.417941</ele>
        <time>2024-09-15T09:33:52.000Z</time>
      </trkpt>
      <trkpt lat="42.132339" lon="-73.939937">
        <ele>50.302524</ele>
        <time>2024-09-15T09:33:55.000Z</time>
      </trkpt>
      <trkpt lat="42.133292" lon="-73.941707">
        <ele>49.6497</ele>
        <time>2024-09-15T09:34:13.000Z</time>
      </trkpt>
      <trkpt lat="42.133469" lon="-73.941956">
        <ele>49.55972</ele>
        <time>2024-09-15T09:34:16.000Z</time>
      </trkpt>
      <trkpt lat="42.133769" lon="-73.94224">
        <ele>49.425448</ele>
        <time>2024-09-15T09:34:20.000Z</time>
      </trkpt>
      <trkpt lat="42.133813" lon="-73.942328">
        <ele>49.3968</ele>
        <time>2024-09-15T09:34:21.000Z</time>
      </trkpt>
      <trkpt lat="42.133891" lon="-73.942549">
        <ele>49.328584</ele>
        <time>2024-09-15T09:34:23.000Z</time>
      </trkpt>
      <trkpt lat="42.134106" lon="-73.943408">
        <ele>49.071829</ele>
        <time>2024-09-15T09:34:30.000Z</time>
      </trkpt>
      <trkpt lat="42.134174" lon="-73.943522">
        <ele>49.027367</ele>
        <time>2024-09-15T09:34:31.000Z</time>
      </trkpt>
      <trkpt lat="42.13434" lon="-73.943718">
        <ele>48.938201</ele>
        <time>2024-09-15T09:34:33.000Z</time>
      </trkpt>
      <trkpt lat="42.134957" lon="-73.944347">
        <ele>48.628558</ele>
        <time>2024-09-15T09:34:42.000Z</time>
      </trkpt>
      <trkpt lat="42.135514" lon="-73.944978">
        <ele>48.605296</ele>
        <time>2024-09-15T09:34:50.000Z</time>
      </trkpt>
      <trkpt lat="42.135669" lon="-73.945142">
        <ele>48.663517</ele>
        <time>2024-09-15T09:34:52.000Z</time>
      </trkpt>
      <trkpt lat="42.135879" lon="-73.945356">
        <ele>48.731143</ele>
        <time>2024-09-15T09:34:55.000Z</time>
      </trkpt>
      <trkpt lat="42.136065" lon="-73.945502">
        <ele>48.789226</ele>
        <time>2024-09-15T09:34:57.000Z</time>
      </trkpt>
      <trkpt lat="42.136182" lon="-73.945577">
        <ele>48.828236</ele>
        <time>2024-09-15T09:34:58.000Z</time>
      </trkpt>
      <trkpt lat="42.136475" lon="-73.945558">
        <ele>48.903993</ele>
        <time>2024-09-15T09:35:01.000Z</time>
      </trkpt>
      <trkpt lat="42.137003" lon="-73.94534">
        <ele>48.986243</ele>
        <time>2024-09-15T09:35:07.000Z</time>
      </trkpt>
      <trkpt lat="42.137233" lon="-73.945344">
        <ele>48.985859</ele>
        <time>2024-09-15T09:35:10.000Z</time>
      </trkpt>
      <trkpt lat="42.137353" lon="-73.94541">
        <ele>48.98566</ele>
        <time>2024-09-15T09:35:11.000Z</time>
      </trkpt>
      <trkpt lat="42.137454" lon="-73.945534">
        <ele>48.985433</ele>
        <time>2024-09-15T09:35:13.000Z</time>
      </trkpt>
      <trkpt lat="42.137572" lon="-73.945776">
        <ele>48.985117</ele>
        <time>2024-09-15T09:35:15.000Z</time>
      </trkpt>
      <trkpt lat="42.137834" lon="-73.946561">
        <ele>48.984065</ele>
        <time>2024-09-15T09:35:22.000Z</time>
      </trkpt>
      <trkpt lat="42.137996" lon="-73.946927">
        <ele>48.938551</ele>
        <time>2024-09-15T09:35:26.000Z</time>
      </trkpt>
      <trkpt lat="42.138904" lon="-73.949">
        <ele>48.390972</ele>
        <time>2024-09-15T09:35:46.000Z</time>
      </trkpt>
      <trkpt lat="42.139212" lon="-73.949705">
        <ele>48.821678</ele>
        <time>2024-09-15T09:35:53.000Z</time>
      </trkpt>
      <trkpt lat="42.140205" lon="-73.951941">
        <ele>50.50664</ele>
        <time>2024-09-15T09:36:14.000Z</time>
      </trkpt>
      <trkpt lat="42.140212" lon="-73.951944">
        <ele>50.511884</ele>
        <time>2024-09-15T09:36:14.000Z</time>
      </trkpt>
      <trkpt lat="42.140479" lon="-73.95237">
        <ele>50.970782</ele>
        <time>2024-09-15T09:36:19.000Z</time>
      </trkpt>
      <trkpt lat="42.141283" lon="-73.953508">
        <ele>53.023652</ele>
        <time>2024-09-15T09:36:32.000Z</time>
      </trkpt>
      <trkpt lat="42.141391" lon="-73.953662">
        <ele>53.372374</ele>
        <time>2024-09-15T09:36:34.000Z</time>
      </trkpt>
      <trkpt lat="42.140151" lon="-73.954049">
        <ele>56.411547</ele>
        <time>2024-09-15T09:36:48.000Z</time>
      </trkpt>
      <trkpt lat="42.139866" lon="-73.954217">
        <ele>57.305797</ele>
        <time>2024-09-15T09:36:51.000Z</time>
      </trkpt>
      <trkpt lat="42.139408" lon="-73.954617">
        <ele>58.800151</ele>
        <time>2024-09-15T09:36:57.000Z</time>
      </trkpt>
      <trkpt lat="42.138976" lon="-73.95483">
        <ele>60.03608</ele>
        <time>2024-09-15T09:37:02.000Z</time>
      </trkpt>
      <trkpt lat="42.138105" lon="-73.955196">
        <ele>61.666546</ele>
        <time>2024-09-15T09:37:12.000Z</time>
      </trkpt>
      <trkpt lat="42.137161" lon="-73.955443">
        <ele>63.090176</ele>
        <time>2024-09-15T09:37:23.000Z</time>
      </trkpt>
      <trkpt lat="42.136286" lon="-73.95564">
        <ele>63.986409</ele>
        <time>2024-09-15T09:37:33.000Z</time>
      </trkpt>
      <trkpt lat="42.136013" lon="-73.95577">
        <ele>64.263627</ele>
        <time>2024-09-15T09:37:36.000Z</time>
      </trkpt>
      <trkpt lat="42.135605" lon="-73.95601">
        <ele>64.694468</ele>
        <time>2024-09-15T09:37:41.000Z</time>
      </trkpt>
      <trkpt lat="42.135063" lon="-73.956381">
        <ele>65.20735</ele>
        <time>2024-09-15T09:37:48.000Z</time>
      </trkpt>
      <trkpt lat="42.134425" lon="-73.956755">
        <ele>65.713371</ele>
        <time>2024-09-15T09:37:56.000Z</time>
      </trkpt>
      <trkpt lat="42.13385" lon="-73.957019">
        <ele>66.156468</ele>
        <time>2024-09-15T09:38:03.000Z</time>
      </trkpt>
      <trkpt lat="42.133485" lon="-73.957173">
        <ele>66.475442</ele>
        <time>2024-09-15T09:38:07.000Z</time>
      </trkpt>
      <trkpt lat="42.133413" lon="-73.957193">
        <ele>66.543804</ele>
        <time>2024-09-15T09:38:08.000Z</time>
      </trkpt>
      <trkpt lat="42.132865" lon="-73.957293">
        <ele>67.086869</ele>
        <time>2024-09-15T09:38:14.000Z</time>
      </trkpt>
      <trkpt lat="42.132566" lon="-73.957357">
        <ele>67.378992</ele>
        <time>2024-09-15T09:38:17.000Z</time>
      </trkpt>
      <trkpt lat="42.132349" lon="-73.957427">
        <ele>67.584462</ele>
        <time>2024-09-15T09:38:19.000Z</time>
      </trkpt>
      <trkpt lat="42.131737" lon="-73.957698">
        <ele>68.199415</ele>
        <time>2024-09-15T09:38:26.000Z</time>
      </trkpt>
      <trkpt lat="42.131194" lon="-73.957942">
        <ele>68.771809</ele>
        <time>2024-09-15T09:38:32.000Z</time>
      </trkpt>
      <trkpt lat="42.130909" lon="-73.958122">
        <ele>69.080465</ele>
        <time>2024-09-15T09:38:35.000Z</time>
      </trkpt>
      <trkpt lat="42.130737" lon="-73.958284">
        <ele>69.281957</ele>
        <time>2024-09-15T09:38:37.000Z</time>
      </trkpt>
      <trkpt lat="42.130387" lon="-73.95857">
        <ele>69.673014</ele>
        <time>2024-09-15T09:38:42.000Z</time>
      </trkpt>
      <trkpt lat="42.130255" lon="-73.958627">
        <ele>69.775943</ele>
        <time>2024-09-15T09:38:44.000Z</time>
      </trkpt>
      <trkpt lat="42.130062" lon="-73.958674">
        <ele>69.712381</ele>
        <time>2024-09-15T09:38:46.000Z</time>
      </trkpt>
      <trkpt lat="42.129096" lon="-73.958757">
        <ele>69.412968</ele>
        <time>2024-09-15T09:38:57.000Z</time>
      </trkpt>
      <trkpt lat="42.128944" lon="-73.958776">
        <ele>69.36171</ele>
        <time>2024-09-15T09:38:59.000Z</time>
      </trkpt>
      <trkpt lat="42.128699" lon="-73.958797">
        <ele>69.288853</ele>
        <time>2024-09-15T09:39:02.000Z</time>
      </trkpt>
      <trkpt lat="42.128603" lon="-73.958793">
        <ele>69.255388</ele>
        <time>2024-09-15T09:39:03.000Z</time>
      </trkpt>
      <trkpt lat="42.127921" lon="-73.958894">
        <ele>69.117457</ele>
        <time>2024-09-15T09:39:11.000Z</time>
      </trkpt>
      <trkpt lat="42.12769" lon="-73.958957">
        <ele>69.074113</ele>
        <time>2024-09-15T09:39:14.000Z</time>
      </trkpt>
      <trkpt lat="42.12661" lon="-73.959387">
        <ele>68.987179</ele>
        <time>2024-09-15T09:39:27.000Z</time>
      </trkpt>
      <trkpt lat="42.126877" lon="-73.959687">
        <ele>69.209372</ele>
        <time>2024-09-15T09:39:31.000Z</time>
      </trkpt>
      <trkpt lat="42.127021" lon="-73.959809">
        <ele>69.316914</ele>
        <time>2024-09-15T09:39:33.000Z</time>
      </trkpt>
      <trkpt lat="42.127985" lon="-73.960343">
        <ele>69.971232</ele>
        <time>2024-09-15T09:39:45.000Z</time>
      </trkpt>
      <trkpt lat="42.12825" lon="-73.960473">
        <ele>69.782551</ele>
        <time>2024-09-15T09:39:48.000Z</time>
      </trkpt>
      <trkpt lat="42.129056" lon="-73.960859">
        <ele>68.69719</ele>
        <time>2024-09-15T09:39:58.000Z</time>
      </trkpt>
      <trkpt lat="42.129361" lon="-73.960961">
        <ele>68.297498</ele>
        <time>2024-09-15T09:40:01.000Z</time>
      </trkpt>
      <trkpt lat="42.129635" lon="-73.961027">
        <ele>67.949666</ele>
        <time>2024-09-15T09:40:04.000Z</time>
      </trkpt>
      <trkpt lat="42.13019" lon="-73.961064">
        <ele>66.788828</ele>
        <time>2024-09-15T09:40:10.000Z</time>
      </trkpt>
      <trkpt lat="42.130455" lon="-73.961142">
        <ele>66.124623</ele>
        <time>2024-09-15T09:40:13.000Z</time>
      </trkpt>
      <trkpt lat="42.131205" lon="-73.961502">
        <ele>64.230002</ele>
        <time>2024-09-15T09:40:22.000Z</time>
      </trkpt>
      <trkpt lat="42.131713" lon="-73.961668">
        <ele>62.794216</ele>
        <time>2024-09-15T09:40:28.000Z</time>
      </trkpt>
      <trkpt lat="42.132061" lon="-73.961692">
        <ele>61.673978</ele>
        <time>2024-09-15T09:40:32.000Z</time>
      </trkpt>
      <trkpt lat="42.132313" lon="-73.961651">
        <ele>60.787585</ele>
        <time>2024-09-15T09:40:35.000Z</time>
      </trkpt>
      <trkpt lat="42.133173" lon="-73.961403">
        <ele>57.955246</ele>
        <time>2024-09-15T09:40:45.000Z</time>
      </trkpt>
      <trkpt lat="42.133352" lon="-73.961436">
        <ele>57.231493</ele>
        <time>2024-09-15T09:40:47.000Z</time>
      </trkpt>
      <trkpt lat="42.133464" lon="-73.961576">
        <ele>56.463277</ele>
        <time>2024-09-15T09:40:49.000Z</time>
      </trkpt>
      <trkpt lat="42.133525" lon="-73.96188">
        <ele>55.34219</ele>
        <time>2024-09-15T09:40:52.000Z</time>
      </trkpt>
      <trkpt lat="42.133591" lon="-73.963897">
        <ele>48.222507</ele>
        <time>2024-09-15T09:41:09.000Z</time>
      </trkpt>
      <trkpt lat="42.133608" lon="-73.964102">
        <ele>47.724875</ele>
        <time>2024-09-15T09:41:11.000Z</time>
      </trkpt>
      <trkpt lat="42.133691" lon="-73.96451">
        <ele>46.767085</ele>
        <time>2024-09-15T09:41:14.000Z</time>
      </trkpt>
      <trkpt lat="42.133871" lon="-73.965209">
        <ele>45.045532</ele>
        <time>2024-09-15T09:41:20.000Z</time>
      </trkpt>
      <trkpt lat="42.133952" lon="-73.965408">
        <ele>44.502865</ele>
        <time>2024-09-15T09:41:22.000Z</time>
      </trkpt>
      <trkpt lat="42.134112" lon="-73.965554">
        <ele>43.889066</ele>
        <time>2024-09-15T09:41:24.000Z</time>
      </trkpt>
      <trkpt lat="42.136916" lon="-73.966609">
        <ele>43.696413</ele>
        <time>2024-09-15T09:41:56.000Z</time>
      </trkpt>
      <trkpt lat="42.137754" lon="-73.967166">
        <ele>44.829579</ele>
        <time>2024-09-15T09:42:06.000Z</time>
      </trkpt>
      <trkpt lat="42.137856" lon="-73.967224">
        <ele>45.080687</ele>
        <time>2024-09-15T09:42:07.000Z</time>
      </trkpt>
      <trkpt lat="42.137949" lon="-73.967377">
        <ele>45.421763</ele>
        <time>2024-09-15T09:42:09.000Z</time>
      </trkpt>
      <trkpt lat="42.137962" lon="-73.967486">
        <ele>45.608773</ele>
        <time>2024-09-15T09:42:10.000Z</time>
      </trkpt>
      <trkpt lat="42.137984" lon="-73.967574">
        <ele>45.771069</ele>
        <time>2024-09-15T09:42:11.000Z</time>
      </trkpt>
      <trkpt lat="42.137945" lon="-73.967753">
        <ele>46.094162</ele>
        <time>2024-09-15T09:42:13.000Z</time>
      </trkpt>
      <trkpt lat="42.137836" lon="-73.968058">
        <ele>46.690538</ele>
        <time>2024-09-15T09:42:16.000Z</time>
      </trkpt>
      <trkpt lat="42.137288" lon="-73.969445">
        <ele>49.451038</ele>
        <time>2024-09-15T09:42:29.000Z</time>
      </trkpt>
      <trkpt lat="42.137169" lon="-73.969658">
        <ele>49.87464</ele>
        <time>2024-09-15T09:42:31.000Z</time>
      </trkpt>
      <trkpt lat="42.137098" lon="-73.969731">
        <ele>50.06636</ele>
        <time>2024-09-15T09:42:32.000Z</time>
      </trkpt>
      <trkpt lat="42.136952" lon="-73.969841">
        <ele>50.465607</ele>
        <time>2024-09-15T09:42:34.000Z</time>
      </trkpt>
      <trkpt lat="42.136572" lon="-73.970036">
        <ele>51.345144</ele>
        <time>2024-09-15T09:42:39.000Z</time>
      </trkpt>
      <trkpt lat="42.136362" lon="-73.970176">
        <ele>51.848528</ele>
        <time>2024-09-15T09:42:42.000Z</time>
      </trkpt>
      <trkpt lat="42.135775" lon="-73.970811">
        <ele>53.882559</ele>
        <time>2024-09-15T09:42:50.000Z</time>
      </trkpt>
      <trkpt lat="42.135518" lon="-73.971195">
        <ele>55.44275</ele>
        <time>2024-09-15T09:42:54.000Z</time>
      </trkpt>
      <trkpt lat="42.135423" lon="-73.971447">
        <ele>56.318778</ele>
        <time>2024-09-15T09:42:56.000Z</time>
      </trkpt>
      <trkpt lat="42.135372" lon="-73.971757">
        <ele>57.310504</ele>
        <time>2024-09-15T09:42:59.000Z</time>
      </trkpt>
      <trkpt lat="42.135376" lon="-73.972014">
        <ele>58.117657</ele>
        <time>2024-09-15T09:43:01.000Z</time>
      </trkpt>
      <trkpt lat="42.135419" lon="-73.972523">
        <ele>59.695403</ele>
        <time>2024-09-15T09:43:05.000Z</time>
      </trkpt>
      <trkpt lat="42.135431" lon="-73.972978">
        <ele>61.309482</ele>
        <time>2024-09-15T09:43:09.000Z</time>
      </trkpt>
      <trkpt lat="42.135455" lon="-73.973093">
        <ele>61.820463</ele>
        <time>2024-09-15T09:43:10.000Z</time>
      </trkpt>
      <trkpt lat="42.135554" lon="-73.973306">
        <ele>62.873915</ele>
        <time>2024-09-15T09:43:12.000Z</time>
      </trkpt>
      <trkpt lat="42.135887" lon="-73.973737">
        <ele>65.560241</ele>
        <time>2024-09-15T09:43:17.000Z</time>
      </trkpt>
      <trkpt lat="42.136195" lon="-73.973968">
        <ele>67.540796</ele>
        <time>2024-09-15T09:43:21.000Z</time>
      </trkpt>
      <trkpt lat="42.136338" lon="-73.974202">
        <ele>68.804097</ele>
        <time>2024-09-15T09:43:24.000Z</time>
      </trkpt>
      <trkpt lat="42.136364" lon="-73.974311">
        <ele>69.332871</ele>
        <time>2024-09-15T09:43:25.000Z</time>
      </trkpt>
      <trkpt lat="42.136493" lon="-73.975101">
        <ele>73.122909</ele>
        <time>2024-09-15T09:43:32.000Z</time>
      </trkpt>
      <trkpt lat="42.13651" lon="-73.97528">
        <ele>74.076487</ele>
        <time>2024-09-15T09:43:33.000Z</time>
      </trkpt>
      <trkpt lat="42.136547" lon="-73.976364">
        <ele>79.485829</ele>
        <time>2024-09-15T09:43:42.000Z</time>
      </trkpt>
      <trkpt lat="42.136631" lon="-73.977456">
        <ele>84.578431</ele>
        <time>2024-09-15T09:43:51.000Z</time>
      </trkpt>
      <trkpt lat="42.136662" lon="-73.978398">
        <ele>88.028187</ele>
        <time>2024-09-15T09:43:59.000Z</time>
      </trkpt>
      <trkpt lat="42.13656" lon="-73.978981">
        <ele>90.262981</ele>
        <time>2024-09-15T09:44:04.000Z</time>
      </trkpt>
      <trkpt lat="42.136504" lon="-73.979558">
        <ele>92.220734</ele>
        <time>2024-09-15T09:44:09.000Z</time>
      </trkpt>
      <trkpt lat="42.136503" lon="-73.979733">
        <ele>92.401836</ele>
        <time>2024-09-15T09:44:10.000Z</time>
      </trkpt>
      <trkpt lat="42.136587" lon="-73.980428">
        <ele>93.146531</ele>
        <time>2024-09-15T09:44:16.000Z</time>
      </trkpt>
      <trkpt lat="42.13675" lon="-73.980827">
        <ele>93.639434</ele>
        <time>2024-09-15T09:44:20.000Z</time>
      </trkpt>
      <trkpt lat="42.136962" lon="-73.981198">
        <ele>94.119391</ele>
        <time>2024-09-15T09:44:24.000Z</time>
      </trkpt>
      <trkpt lat="42.137333" lon="-73.981699">
        <ele>94.83483</ele>
        <time>2024-09-15T09:44:30.000Z</time>
      </trkpt>
      <trkpt lat="42.137662" lon="-73.982199">
        <ele>95.390336</ele>
        <time>2024-09-15T09:44:36.000Z</time>
      </trkpt>
      <trkpt lat="42.138014" lon="-73.982626">
        <ele>95.919994</ele>
        <time>2024-09-15T09:44:41.000Z</time>
      </trkpt>
      <trkpt lat="42.138061" lon="-73.982767">
        <ele>96.048767</ele>
        <time>2024-09-15T09:44:42.000Z</time>
      </trkpt>
      <trkpt lat="42.138222" lon="-73.983342">
        <ele>96.550734</ele>
        <time>2024-09-15T09:44:47.000Z</time>
      </trkpt>
      <trkpt lat="42.138534" lon="-73.984151">
        <ele>97.459389</ele>
        <time>2024-09-15T09:44:55.000Z</time>
      </trkpt>
      <trkpt lat="42.138605" lon="-73.984281">
        <ele>97.64138</ele>
        <time>2024-09-15T09:44:56.000Z</time>
      </trkpt>
      <trkpt lat="42.138867" lon="-73.984564">
        <ele>98.115737</ele>
        <time>2024-09-15T09:45:00.000Z</time>
      </trkpt>
      <trkpt lat="42.139204" lon="-73.985181">
        <ele>98.928404</ele>
        <time>2024-09-15T09:45:06.000Z</time>
      </trkpt>
      <trkpt lat="42.13934" lon="-73.985325">
        <ele>99.168326</ele>
        <time>2024-09-15T09:45:08.000Z</time>
      </trkpt>
      <trkpt lat="42.139504" lon="-73.985451">
        <ele>99.351779</ele>
        <time>2024-09-15T09:45:10.000Z</time>
      </trkpt>
      <trkpt lat="42.139775" lon="-73.985603">
        <ele>99.552523</ele>
        <time>2024-09-15T09:45:13.000Z</time>
      </trkpt>
      <trkpt lat="42.140229" lon="-73.985688">
        <ele>99.8652</ele>
        <time>2024-09-15T09:45:18.000Z</time>
      </trkpt>
      <trkpt lat="42.140385" lon="-73.985711">
        <ele>99.965387</ele>
        <time>2024-09-15T09:45:20.000Z</time>
      </trkpt>
      <trkpt lat="42.140674" lon="-73.98567">
        <ele>100.172069</ele>
        <time>2024-09-15T09:45:23.000Z</time>
      </trkpt>
      <trkpt lat="42.140821" lon="-73.985684">
        <ele>100.262563</ele>
        <time>2024-09-15T09:45:25.000Z</time>
      </trkpt>
      <trkpt lat="42.140936" lon="-73.985772">
        <ele>100.363075</ele>
        <time>2024-09-15T09:45:26.000Z</time>
      </trkpt>
      <trkpt lat="42.140985" lon="-73.985868">
        <ele>100.421466</ele>
        <time>2024-09-15T09:45:27.000Z</time>
      </trkpt>
      <trkpt lat="42.141335" lon="-73.987486">
        <ele>100.161744</ele>
        <time>2024-09-15T09:45:41.000Z</time>
      </trkpt>
      <trkpt lat="42.141598" lon="-73.989348">
        <ele>99.993472</ele>
        <time>2024-09-15T09:45:57.000Z</time>
      </trkpt>
      <trkpt lat="42.141638" lon="-73.989641">
        <ele>100.001288</ele>
        <time>2024-09-15T09:45:59.000Z</time>
      </trkpt>
      <trkpt lat="42.142242" lon="-73.989256">
        <ele>100.024632</ele>
        <time>2024-09-15T09:46:06.000Z</time>
      </trkpt>
      <trkpt lat="42.142513" lon="-73.989154">
        <ele>100.065284</ele>
        <time>2024-09-15T09:46:09.000Z</time>
      </trkpt>
      <trkpt lat="42.142701" lon="-73.989112">
        <ele>100.116721</ele>
        <time>2024-09-15T09:46:11.000Z</time>
      </trkpt>
      <trkpt lat="42.143295" lon="-73.988983">
        <ele>100.277463</ele>
        <time>2024-09-15T09:46:18.000Z</time>
      </trkpt>
      <trkpt lat="42.143437" lon="-73.988915">
        <ele>100.319077</ele>
        <time>2024-09-15T09:46:20.000Z</time>
      </trkpt>
      <trkpt lat="42.143789" lon="-73.988741">
        <ele>100.422301</ele>
        <time>2024-09-15T09:46:24.000Z</time>
      </trkpt>
      <trkpt lat="42.144026" lon="-73.988695">
        <ele>100.485682</ele>
        <time>2024-09-15T09:46:27.000Z</time>
      </trkpt>
      <trkpt lat="42.144277" lon="-73.988647">
        <ele>100.681591</ele>
        <time>2024-09-15T09:46:30.000Z</time>
      </trkpt>
      <trkpt lat="42.144732" lon="-73.988456">
        <ele>101.202177</ele>
        <time>2024-09-15T09:46:35.000Z</time>
      </trkpt>
      <trkpt lat="42.145176" lon="-73.988264">
        <ele>101.717995</ele>
        <time>2024-09-15T09:46:40.000Z</time>
      </trkpt>
      <trkpt lat="42.145303" lon="-73.988283">
        <ele>101.871228</ele>
        <time>2024-09-15T09:46:41.000Z</time>
      </trkpt>
      <trkpt lat="42.145433" lon="-73.988324">
        <ele>102.009545</ele>
        <time>2024-09-15T09:46:42.000Z</time>
      </trkpt>
      <trkpt lat="42.145632" lon="-73.988488">
        <ele>102.270586</ele>
        <time>2024-09-15T09:46:45.000Z</time>
      </trkpt>
      <trkpt lat="42.145754" lon="-73.988546">
        <ele>102.412427</ele>
        <time>2024-09-15T09:46:46.000Z</time>
      </trkpt>
      <trkpt lat="42.145867" lon="-73.988562">
        <ele>102.549106</ele>
        <time>2024-09-15T09:46:47.000Z</time>
      </trkpt>
      <trkpt lat="42.146361" lon="-73.98841">
        <ele>103.296678</ele>
        <time>2024-09-15T09:46:53.000Z</time>
      </trkpt>
      <trkpt lat="42.146986" lon="-73.98824">
        <ele>104.254143</ele>
        <time>2024-09-15T09:47:00.000Z</time>
      </trkpt>
      <trkpt lat="42.147832" lon="-73.987866">
        <ele>105.242014</ele>
        <time>2024-09-15T09:47:10.000Z</time>
      </trkpt>
      <trkpt lat="42.148857" lon="-73.98738">
        <ele>105.464212</ele>
        <time>2024-09-15T09:47:22.000Z</time>
      </trkpt>
      <trkpt lat="42.149358" lon="-73.987136">
        <ele>105.500854</ele>
        <time>2024-09-15T09:47:28.000Z</time>
      </trkpt>
      <trkpt lat="42.14956" lon="-73.987031">
        <ele>105.339008</ele>
        <time>2024-09-15T09:47:30.000Z</time>
      </trkpt>
      <trkpt lat="42.149704" lon="-73.986911">
        <ele>105.218213</ele>
        <time>2024-09-15T09:47:32.000Z</time>
      </trkpt>
      <trkpt lat="42.149783" lon="-73.986828">
        <ele>105.139122</ele>
        <time>2024-09-15T09:47:33.000Z</time>
      </trkpt>
      <trkpt lat="42.149951" lon="-73.986388">
        <ele>104.858979</ele>
        <time>2024-09-15T09:47:37.000Z</time>
      </trkpt>
      <trkpt lat="42.150122" lon="-73.986028">
        <ele>104.625617</ele>
        <time>2024-09-15T09:47:41.000Z</time>
      </trkpt>
      <trkpt lat="42.150307" lon="-73.985824">
        <ele>104.44633</ele>
        <time>2024-09-15T09:47:44.000Z</time>
      </trkpt>
      <trkpt lat="42.150741" lon="-73.985384">
        <ele>103.866727</ele>
        <time>2024-09-15T09:47:50.000Z</time>
      </trkpt>
      <trkpt lat="42.15115" lon="-73.984907">
        <ele>103.087424</ele>
        <time>2024-09-15T09:47:56.000Z</time>
      </trkpt>
      <trkpt lat="42.151457" lon="-73.984758">
        <ele>102.610105</ele>
        <time>2024-09-15T09:48:00.000Z</time>
      </trkpt>
      <trkpt lat="42.15173" lon="-73.984559">
        <ele>102.166991</ele>
        <time>2024-09-15T09:48:03.000Z</time>
      </trkpt>
      <trkpt lat="42.152058" lon="-73.984118">
        <ele>101.488894</ele>
        <time>2024-09-15T09:48:08.000Z</time>
      </trkpt>
      <trkpt lat="42.152495" lon="-73.983691">
        <ele>100.730789</ele>
        <time>2024-09-15T09:48:14.000Z</time>
      </trkpt>
      <trkpt lat="42.15343" lon="-73.982895">
        <ele>99.197383</ele>
        <time>2024-09-15T09:48:26.000Z</time>
      </trkpt>
      <trkpt lat="42.154003" lon="-73.982504">
        <ele>98.513166</ele>
        <time>2024-09-15T09:48:33.000Z</time>
      </trkpt>
      <trkpt lat="42.154243" lon="-73.982284">
        <ele>98.236879</ele>
        <time>2024-09-15T09:48:36.000Z</time>
      </trkpt>
      <trkpt lat="42.154504" lon="-73.982016">
        <ele>97.919864</ele>
        <time>2024-09-15T09:48:40.000Z</time>
      </trkpt>
      <trkpt lat="42.154986" lon="-73.981341">
        <ele>97.063796</ele>
        <time>2024-09-15T09:48:48.000Z</time>
      </trkpt>
      <trkpt lat="42.155224" lon="-73.981062">
        <ele>95.976077</ele>
        <time>2024-09-15T09:48:52.000Z</time>
      </trkpt>
      <trkpt lat="42.155749" lon="-73.980575">
        <ele>93.667452</ele>
        <time>2024-09-15T09:48:59.000Z</time>
      </trkpt>
      <trkpt lat="42.155878" lon="-73.980482">
        <ele>93.180418</ele>
        <time>2024-09-15T09:49:01.000Z</time>
      </trkpt>
      <trkpt lat="42.156601" lon="-73.97988">
        <ele>90.234872</ele>
        <time>2024-09-15T09:49:10.000Z</time>
      </trkpt>
      <trkpt lat="42.15679" lon="-73.979689">
        <ele>89.477723</ele>
        <time>2024-09-15T09:49:13.000Z</time>
      </trkpt>
      <trkpt lat="42.156901" lon="-73.979504">
        <ele>88.937489</ele>
        <time>2024-09-15T09:49:15.000Z</time>
      </trkpt>
      <trkpt lat="42.157231" lon="-73.978811">
        <ele>87.022898</ele>
        <time>2024-09-15T09:49:22.000Z</time>
      </trkpt>
      <trkpt lat="42.157347" lon="-73.978615">
        <ele>86.442988</ele>
        <time>2024-09-15T09:49:24.000Z</time>
      </trkpt>
      <trkpt lat="42.157471" lon="-73.978514">
        <ele>86.00094</ele>
        <time>2024-09-15T09:49:26.000Z</time>
      </trkpt>
      <trkpt lat="42.157477" lon="-73.978502">
        <ele>85.942803</ele>
        <time>2024-09-15T09:49:26.000Z</time>
      </trkpt>
      <trkpt lat="42.157552" lon="-73.978478">
        <ele>85.700773</ele>
        <time>2024-09-15T09:49:27.000Z</time>
      </trkpt>
      <trkpt lat="42.158288" lon="-73.978326">
        <ele>84.875598</ele>
        <time>2024-09-15T09:49:35.000Z</time>
      </trkpt>
      <trkpt lat="42.159491" lon="-73.978011">
        <ele>84.071212</ele>
        <time>2024-09-15T09:49:49.000Z</time>
      </trkpt>
      <trkpt lat="42.159786" lon="-73.977886">
        <ele>83.876316</ele>
        <time>2024-09-15T09:49:52.000Z</time>
      </trkpt>
      <trkpt lat="42.160463" lon="-73.977531">
        <ele>83.4013</ele>
        <time>2024-09-15T09:50:00.000Z</time>
      </trkpt>
      <trkpt lat="42.160902" lon="-73.977357">
        <ele>83.107007</ele>
        <time>2024-09-15T09:50:05.000Z</time>
      </trkpt>
      <trkpt lat="42.161149" lon="-73.977175">
        <ele>82.928603</ele>
        <time>2024-09-15T09:50:08.000Z</time>
      </trkpt>
      <trkpt lat="42.161448" lon="-73.976886">
        <ele>83.041835</ele>
        <time>2024-09-15T09:50:12.000Z</time>
      </trkpt>
      <trkpt lat="42.161412" lon="-73.976754">
        <ele>83.074931</ele>
        <time>2024-09-15T09:50:13.000Z</time>
      </trkpt>
      <trkpt lat="42.161407" lon="-73.976582">
        <ele>83.110848</ele>
        <time>2024-09-15T09:50:14.000Z</time>
      </trkpt>
      <trkpt lat="42.161425" lon="-73.976442">
        <ele>83.143438</ele>
        <time>2024-09-15T09:50:15.000Z</time>
      </trkpt>
      <trkpt lat="42.161632" lon="-73.97595">
        <ele>83.271534</ele>
        <time>2024-09-15T09:50:20.000Z</time>
      </trkpt>
      <trkpt lat="42.161662" lon="-73.9759">
        <ele>83.285534</ele>
        <time>2024-09-15T09:50:21.000Z</time>
      </trkpt>
      <trkpt lat="42.161725" lon="-73.975687">
        <ele>83.336819</ele>
        <time>2024-09-15T09:50:23.000Z</time>
      </trkpt>
      <trkpt lat="42.161747" lon="-73.975285">
        <ele>83.430658</ele>
        <time>2024-09-15T09:50:26.000Z</time>
      </trkpt>
      <trkpt lat="42.161647" lon="-73.974625">
        <ele>83.42437</ele>
        <time>2024-09-15T09:50:32.000Z</time>
      </trkpt>
      <trkpt lat="42.161683" lon="-73.974002">
        <ele>83.35687</ele>
        <time>2024-09-15T09:50:37.000Z</time>
      </trkpt>
      <trkpt lat="42.161742" lon="-73.973687">
        <ele>83.320538</ele>
        <time>2024-09-15T09:50:40.000Z</time>
      </trkpt>
      <trkpt lat="42.16199" lon="-73.973325">
        <ele>83.266569</ele>
        <time>2024-09-15T09:50:44.000Z</time>
      </trkpt>
      <trkpt lat="42.162039" lon="-73.97317">
        <ele>83.24758</ele>
        <time>2024-09-15T09:50:45.000Z</time>
      </trkpt>
      <trkpt lat="42.162054" lon="-73.972966">
        <ele>83.225451</ele>
        <time>2024-09-15T09:50:47.000Z</time>
      </trkpt>
      <trkpt lat="42.161972" lon="-73.972565">
        <ele>82.590677</ele>
        <time>2024-09-15T09:50:50.000Z</time>
      </trkpt>
      <trkpt lat="42.161987" lon="-73.972488">
        <ele>82.377516</ele>
        <time>2024-09-15T09:50:51.000Z</time>
      </trkpt>
      <trkpt lat="42.161843" lon="-73.972331">
        <ele>81.779231</ele>
        <time>2024-09-15T09:50:53.000Z</time>
      </trkpt>
      <trkpt lat="42.16173" lon="-73.972156">
        <ele>81.205767</ele>
        <time>2024-09-15T09:50:55.000Z</time>
      </trkpt>
      <trkpt lat="42.161679" lon="-73.97194">
        <ele>80.632694</ele>
        <time>2024-09-15T09:50:57.000Z</time>
      </trkpt>
      <trkpt lat="42.161683" lon="-73.971681">
        <ele>80.027255</ele>
        <time>2024-09-15T09:50:59.000Z</time>
      </trkpt>
      <trkpt lat="42.161721" lon="-73.971474">
        <ele>79.516602</ele>
        <time>2024-09-15T09:51:01.000Z</time>
      </trkpt>
      <trkpt lat="42.16206" lon="-73.971031">
        <ele>77.994362</ele>
        <time>2024-09-15T09:51:06.000Z</time>
      </trkpt>
      <trkpt lat="42.162198" lon="-73.970721">
        <ele>77.0569</ele>
        <time>2024-09-15T09:51:09.000Z</time>
      </trkpt>
      <trkpt lat="42.162257" lon="-73.970468">
        <ele>76.29587</ele>
        <time>2024-09-15T09:51:11.000Z</time>
      </trkpt>
      <trkpt lat="42.162301" lon="-73.970025">
        <ele>75.03007</ele>
        <time>2024-09-15T09:51:15.000Z</time>
      </trkpt>
      <trkpt lat="42.162333" lon="-73.969923">
        <ele>74.701789</ele>
        <time>2024-09-15T09:51:16.000Z</time>
      </trkpt>
      <trkpt lat="42.162565" lon="-73.969498">
        <ele>73.194239</ele>
        <time>2024-09-15T09:51:20.000Z</time>
      </trkpt>
      <trkpt lat="42.162606" lon="-73.969341">
        <ele>72.725318</ele>
        <time>2024-09-15T09:51:21.000Z</time>
      </trkpt>
      <trkpt lat="42.162628" lon="-73.969027">
        <ele>71.814176</ele>
        <time>2024-09-15T09:51:24.000Z</time>
      </trkpt>
      <trkpt lat="42.162572" lon="-73.968715">
        <ele>70.921165</ele>
        <time>2024-09-15T09:51:27.000Z</time>
      </trkpt>
      <trkpt lat="42.16234" lon="-73.968089">
        <ele>71.853177</ele>
        <time>2024-09-15T09:51:33.000Z</time>
      </trkpt>
      <trkpt lat="42.162199" lon="-73.967823">
        <ele>72.729719</ele>
        <time>2024-09-15T09:51:36.000Z</time>
      </trkpt>
      <trkpt lat="42.162116" lon="-73.967683">
        <ele>73.200194</ele>
        <time>2024-09-15T09:51:37.000Z</time>
      </trkpt>
      <trkpt lat="42.162293" lon="-73.967506">
        <ele>73.98492</ele>
        <time>2024-09-15T09:51:39.000Z</time>
      </trkpt>
      <trkpt lat="42.162587" lon="-73.967033">
        <ele>75.639595</ele>
        <time>2024-09-15T09:51:44.000Z</time>
      </trkpt>
      <trkpt lat="42.162729" lon="-73.966887">
        <ele>76.273321</ele>
        <time>2024-09-15T09:51:46.000Z</time>
      </trkpt>
      <trkpt lat="42.162995" lon="-73.966717">
        <ele>78.099806</ele>
        <time>2024-09-15T09:51:49.000Z</time>
      </trkpt>
      <trkpt lat="42.163557" lon="-73.965755">
        <ele>86.179482</ele>
        <time>2024-09-15T09:51:59.000Z</time>
      </trkpt>
      <trkpt lat="42.163878" lon="-73.96514">
        <ele>91.159073</ele>
        <time>2024-09-15T09:52:05.000Z</time>
      </trkpt>
      <trkpt lat="42.163917" lon="-73.964995">
        <ele>92.131069</ele>
        <time>2024-09-15T09:52:06.000Z</time>
      </trkpt>
      <trkpt lat="42.163932" lon="-73.964582">
        <ele>93.627486</ele>
        <time>2024-09-15T09:52:09.000Z</time>
      </trkpt>
      <trkpt lat="42.164012" lon="-73.964266">
        <ele>94.435763</ele>
        <time>2024-09-15T09:52:12.000Z</time>
      </trkpt>
      <trkpt lat="42.16454" lon="-73.963338">
        <ele>97.222992</ele>
        <time>2024-09-15T09:52:22.000Z</time>
      </trkpt>
      <trkpt lat="42.164698" lon="-73.962975">
        <ele>98.283253</ele>
        <time>2024-09-15T09:52:25.000Z</time>
      </trkpt>
      <trkpt lat="42.164907" lon="-73.962616">
        <ele>98.141537</ele>
        <time>2024-09-15T09:52:29.000Z</time>
      </trkpt>
      <trkpt lat="42.165286" lon="-73.962053">
        <ele>96.114006</ele>
        <time>2024-09-15T09:52:35.000Z</time>
      </trkpt>
      <trkpt lat="42.165436" lon="-73.961763">
        <ele>95.185537</ele>
        <time>2024-09-15T09:52:38.000Z</time>
      </trkpt>
      <trkpt lat="42.165552" lon="-73.961378">
        <ele>94.070454</ele>
        <time>2024-09-15T09:52:41.000Z</time>
      </trkpt>
      <trkpt lat="42.165752" lon="-73.96036">
        <ele>91.508958</ele>
        <time>2024-09-15T09:52:50.000Z</time>
      </trkpt>
      <trkpt lat="42.165868" lon="-73.959936">
        <ele>90.570842</ele>
        <time>2024-09-15T09:52:54.000Z</time>
      </trkpt>
      <trkpt lat="42.166022" lon="-73.959505">
        <ele>89.553015</ele>
        <time>2024-09-15T09:52:58.000Z</time>
      </trkpt>
      <trkpt lat="42.166266" lon="-73.958976">
        <ele>88.243852</ele>
        <time>2024-09-15T09:53:03.000Z</time>
      </trkpt>
      <trkpt lat="42.166419" lon="-73.958748">
        <ele>87.585295</ele>
        <time>2024-09-15T09:53:06.000Z</time>
      </trkpt>
      <trkpt lat="42.166267" lon="-73.95899">
        <ele>87.592629</ele>
        <time>2024-09-15T09:53:09.000Z</time>
      </trkpt>
      <trkpt lat="42.166028" lon="-73.95951">
        <ele>89.227444</ele>
        <time>2024-09-15T09:53:14.000Z</time>
      </trkpt>
      <trkpt lat="42.165861" lon="-73.959931">
        <ele>90.498449</ele>
        <time>2024-09-15T09:53:18.000Z</time>
      </trkpt>
      <trkpt lat="42.165758" lon="-73.960343">
        <ele>91.669914</ele>
        <time>2024-09-15T09:53:22.000Z</time>
      </trkpt>
      <trkpt lat="42.165568" lon="-73.961378">
        <ele>94.30182</ele>
        <time>2024-09-15T09:53:31.000Z</time>
      </trkpt>
      <trkpt lat="42.165434" lon="-73.961765">
        <ele>95.192896</ele>
        <time>2024-09-15T09:53:35.000Z</time>
      </trkpt>
      <trkpt lat="42.165299" lon="-73.96205">
        <ele>95.934854</ele>
        <time>2024-09-15T09:53:38.000Z</time>
      </trkpt>
      <trkpt lat="42.164905" lon="-73.962615">
        <ele>97.555096</ele>
        <time>2024-09-15T09:53:44.000Z</time>
      </trkpt>
      <trkpt lat="42.164709" lon="-73.962964">
        <ele>98.48206</ele>
        <time>2024-09-15T09:53:48.000Z</time>
      </trkpt>
      <trkpt lat="42.164527" lon="-73.963346">
        <ele>97.810251</ele>
        <time>2024-09-15T09:53:52.000Z</time>
      </trkpt>
      <trkpt lat="42.16402" lon="-73.964266">
        <ele>94.120334</ele>
        <time>2024-09-15T09:54:01.000Z</time>
      </trkpt>
      <trkpt lat="42.163934" lon="-73.964585">
        <ele>93.050285</ele>
        <time>2024-09-15T09:54:04.000Z</time>
      </trkpt>
      <trkpt lat="42.163901" lon="-73.964983">
        <ele>91.740194</ele>
        <time>2024-09-15T09:54:07.000Z</time>
      </trkpt>
      <trkpt lat="42.163877" lon="-73.965128">
        <ele>91.271482</ele>
        <time>2024-09-15T09:54:08.000Z</time>
      </trkpt>
      <trkpt lat="42.163558" lon="-73.965746">
        <ele>86.521448</ele>
        <time>2024-09-15T09:54:14.000Z</time>
      </trkpt>
      <trkpt lat="42.163006" lon="-73.96671">
        <ele>78.406422</ele>
        <time>2024-09-15T09:54:24.000Z</time>
      </trkpt>
      <trkpt lat="42.162728" lon="-73.9669">
        <ele>75.658204</ele>
        <time>2024-09-15T09:54:27.000Z</time>
      </trkpt>
      <trkpt lat="42.162572" lon="-73.96703">
        <ele>74.717304</ele>
        <time>2024-09-15T09:54:29.000Z</time>
      </trkpt>
      <trkpt lat="42.162289" lon="-73.967507">
        <ele>73.676748</ele>
        <time>2024-09-15T09:54:34.000Z</time>
      </trkpt>
      <trkpt lat="42.162116" lon="-73.967682">
        <ele>73.183279</ele>
        <time>2024-09-15T09:54:36.000Z</time>
      </trkpt>
      <trkpt lat="42.162202" lon="-73.967819">
        <ele>72.887419</ele>
        <time>2024-09-15T09:54:37.000Z</time>
      </trkpt>
      <trkpt lat="42.162325" lon="-73.968092">
        <ele>72.336185</ele>
        <time>2024-09-15T09:54:40.000Z</time>
      </trkpt>
      <trkpt lat="42.162586" lon="-73.968732">
        <ele>71.123443</ele>
        <time>2024-09-15T09:54:46.000Z</time>
      </trkpt>
      <trkpt lat="42.162621" lon="-73.969039">
        <ele>71.328935</ele>
        <time>2024-09-15T09:54:49.000Z</time>
      </trkpt>
      <trkpt lat="42.162602" lon="-73.969356">
        <ele>72.329285</ele>
        <time>2024-09-15T09:54:52.000Z</time>
      </trkpt>
      <trkpt lat="42.162551" lon="-73.969491">
        <ele>72.844108</ele>
        <time>2024-09-15T09:54:53.000Z</time>
      </trkpt>
      <trkpt lat="42.162321" lon="-73.969915">
        <ele>74.499241</ele>
        <time>2024-09-15T09:54:57.000Z</time>
      </trkpt>
      <trkpt lat="42.162293" lon="-73.970037">
        <ele>74.859654</ele>
        <time>2024-09-15T09:54:58.000Z</time>
      </trkpt>
      <trkpt lat="42.162251" lon="-73.970465">
        <ele>76.249384</ele>
        <time>2024-09-15T09:55:02.000Z</time>
      </trkpt>
      <trkpt lat="42.162204" lon="-73.970727">
        <ele>77.08491</ele>
        <time>2024-09-15T09:55:04.000Z</time>
      </trkpt>
      <trkpt lat="42.162059" lon="-73.971035">
        <ele>78.245497</ele>
        <time>2024-09-15T09:55:07.000Z</time>
      </trkpt>
      <trkpt lat="42.161713" lon="-73.971486">
        <ele>79.649906</ele>
        <time>2024-09-15T09:55:12.000Z</time>
      </trkpt>
      <trkpt lat="42.161665" lon="-73.971672">
        <ele>80.094189</ele>
        <time>2024-09-15T09:55:14.000Z</time>
      </trkpt>
      <trkpt lat="42.161664" lon="-73.971938">
        <ele>80.62094</ele>
        <time>2024-09-15T09:55:16.000Z</time>
      </trkpt>
      <trkpt lat="42.161724" lon="-73.97216">
        <ele>81.119526</ele>
        <time>2024-09-15T09:55:18.000Z</time>
      </trkpt>
      <trkpt lat="42.161844" lon="-73.972341">
        <ele>81.618461</ele>
        <time>2024-09-15T09:55:20.000Z</time>
      </trkpt>
      <trkpt lat="42.16199" lon="-73.97248">
        <ele>82.13897</ele>
        <time>2024-09-15T09:55:22.000Z</time>
      </trkpt>
      <trkpt lat="42.161983" lon="-73.972577">
        <ele>82.324421</ele>
        <time>2024-09-15T09:55:23.000Z</time>
      </trkpt>
      <trkpt lat="42.162046" lon="-73.972962">
        <ele>83.158538</ele>
        <time>2024-09-15T09:55:26.000Z</time>
      </trkpt>
      <trkpt lat="42.162033" lon="-73.973171">
        <ele>83.577603</ele>
        <time>2024-09-15T09:55:28.000Z</time>
      </trkpt>
      <trkpt lat="42.161976" lon="-73.973329">
        <ele>83.558596</ele>
        <time>2024-09-15T09:55:29.000Z</time>
      </trkpt>
      <trkpt lat="42.161737" lon="-73.973688">
        <ele>83.504563</ele>
        <time>2024-09-15T09:55:33.000Z</time>
      </trkpt>
      <trkpt lat="42.161678" lon="-73.974016">
        <ele>83.468191</ele>
        <time>2024-09-15T09:55:36.000Z</time>
      </trkpt>
      <trkpt lat="42.161658" lon="-73.974633">
        <ele>83.400591</ele>
        <time>2024-09-15T09:55:41.000Z</time>
      </trkpt>
      <trkpt lat="42.161747" lon="-73.975273">
        <ele>83.327252</ele>
        <time>2024-09-15T09:55:46.000Z</time>
      </trkpt>
      <trkpt lat="42.161717" lon="-73.9757">
        <ele>83.278972</ele>
        <time>2024-09-15T09:55:50.000Z</time>
      </trkpt>
      <trkpt lat="42.161666" lon="-73.975911">
        <ele>83.251817</ele>
        <time>2024-09-15T09:55:52.000Z</time>
      </trkpt>
      <trkpt lat="42.161647" lon="-73.975957">
        <ele>83.244406</ele>
        <time>2024-09-15T09:55:52.000Z</time>
      </trkpt>
      <trkpt lat="42.161423" lon="-73.976443">
        <ele>83.176553</ele>
        <time>2024-09-15T09:55:57.000Z</time>
      </trkpt>
      <trkpt lat="42.161407" lon="-73.976589">
        <ele>83.15929</ele>
        <time>2024-09-15T09:55:58.000Z</time>
      </trkpt>
      <trkpt lat="42.161411" lon="-73.976755">
        <ele>83.140258</ele>
        <time>2024-09-15T09:55:59.000Z</time>
      </trkpt>
      <trkpt lat="42.161451" lon="-73.976879">
        <ele>83.122726</ele>
        <time>2024-09-15T09:56:00.000Z</time>
      </trkpt>
      <trkpt lat="42.161148" lon="-73.977177">
        <ele>83.062762</ele>
        <time>2024-09-15T09:56:04.000Z</time>
      </trkpt>
      <trkpt lat="42.16091" lon="-73.977354">
        <ele>83.038218</ele>
        <time>2024-09-15T09:56:07.000Z</time>
      </trkpt>
      <trkpt lat="42.160465" lon="-73.977539">
        <ele>83.345371</ele>
        <time>2024-09-15T09:56:12.000Z</time>
      </trkpt>
      <trkpt lat="42.159785" lon="-73.977885">
        <ele>83.841161</ele>
        <time>2024-09-15T09:56:20.000Z</time>
      </trkpt>
      <trkpt lat="42.159495" lon="-73.978">
        <ele>84.044569</ele>
        <time>2024-09-15T09:56:23.000Z</time>
      </trkpt>
      <trkpt lat="42.158292" lon="-73.978323">
        <ele>84.998289</ele>
        <time>2024-09-15T09:56:37.000Z</time>
      </trkpt>
      <trkpt lat="42.157557" lon="-73.978469">
        <ele>85.59067</ele>
        <time>2024-09-15T09:56:45.000Z</time>
      </trkpt>
      <trkpt lat="42.157487" lon="-73.978517">
        <ele>85.652655</ele>
        <time>2024-09-15T09:56:46.000Z</time>
      </trkpt>
      <trkpt lat="42.157471" lon="-73.978523">
        <ele>85.667539</ele>
        <time>2024-09-15T09:56:46.000Z</time>
      </trkpt>
      <trkpt lat="42.15735" lon="-73.978624">
        <ele>86.112764</ele>
        <time>2024-09-15T09:56:48.000Z</time>
      </trkpt>
      <trkpt lat="42.157226" lon="-73.978808">
        <ele>86.761175</ele>
        <time>2024-09-15T09:56:50.000Z</time>
      </trkpt>
      <trkpt lat="42.156909" lon="-73.979508">
        <ele>88.901961</ele>
        <time>2024-09-15T09:56:57.000Z</time>
      </trkpt>
      <trkpt lat="42.156785" lon="-73.979684">
        <ele>89.506015</ele>
        <time>2024-09-15T09:56:59.000Z</time>
      </trkpt>
      <trkpt lat="42.156608" lon="-73.979887">
        <ele>90.352607</ele>
        <time>2024-09-15T09:57:02.000Z</time>
      </trkpt>
      <trkpt lat="42.155879" lon="-73.980484">
        <ele>93.232082</ele>
        <time>2024-09-15T09:57:11.000Z</time>
      </trkpt>
      <trkpt lat="42.155767" lon="-73.980582">
        <ele>93.672517</ele>
        <time>2024-09-15T09:57:12.000Z</time>
      </trkpt>
      <trkpt lat="42.155224" lon="-73.981075">
        <ele>95.760268</ele>
        <time>2024-09-15T09:57:19.000Z</time>
      </trkpt>
      <trkpt lat="42.15499" lon="-73.981339">
        <ele>96.743919</ele>
        <time>2024-09-15T09:57:22.000Z</time>
      </trkpt>
      <trkpt lat="42.154508" lon="-73.982019">
        <ele>98.088944</ele>
        <time>2024-09-15T09:57:30.000Z</time>
      </trkpt>
      <trkpt lat="42.154243" lon="-73.982285">
        <ele>98.36046</ele>
        <time>2024-09-15T09:57:34.000Z</time>
      </trkpt>
      <trkpt lat="42.154004" lon="-73.982498">
        <ele>98.597073</ele>
        <time>2024-09-15T09:57:37.000Z</time>
      </trkpt>
      <trkpt lat="42.153423" lon="-73.982892">
        <ele>99.146844</ele>
        <time>2024-09-15T09:57:44.000Z</time>
      </trkpt>
      <trkpt lat="42.152507" lon="-73.983691">
        <ele>100.708759</ele>
        <time>2024-09-15T09:57:56.000Z</time>
      </trkpt>
      <trkpt lat="42.152062" lon="-73.984114">
        <ele>101.532869</ele>
        <time>2024-09-15T09:58:02.000Z</time>
      </trkpt>
      <trkpt lat="42.15174" lon="-73.984567">
        <ele>102.221349</ele>
        <time>2024-09-15T09:58:07.000Z</time>
      </trkpt>
      <trkpt lat="42.151458" lon="-73.984757">
        <ele>102.635838</ele>
        <time>2024-09-15T09:58:11.000Z</time>
      </trkpt>
      <trkpt lat="42.151151" lon="-73.984913">
        <ele>103.082339</ele>
        <time>2024-09-15T09:58:15.000Z</time>
      </trkpt>
      <trkpt lat="42.150754" lon="-73.985367">
        <ele>103.811282</ele>
        <time>2024-09-15T09:58:21.000Z</time>
      </trkpt>
      <trkpt lat="42.150297" lon="-73.985818">
        <ele>104.514849</ele>
        <time>2024-09-15T09:58:27.000Z</time>
      </trkpt>
      <trkpt lat="42.150126" lon="-73.98603">
        <ele>104.668397</ele>
        <time>2024-09-15T09:58:30.000Z</time>
      </trkpt>
      <trkpt lat="42.149946" lon="-73.986381">
        <ele>104.86827</ele>
        <time>2024-09-15T09:58:34.000Z</time>
      </trkpt>
      <trkpt lat="42.149777" lon="-73.98682">
        <ele>105.1082</ele>
        <time>2024-09-15T09:58:38.000Z</time>
      </trkpt>
      <trkpt lat="42.149692" lon="-73.986904">
        <ele>105.175951</ele>
        <time>2024-09-15T09:58:39.000Z</time>
      </trkpt>
      <trkpt lat="42.14956" lon="-73.987013">
        <ele>105.279408</ele>
        <time>2024-09-15T09:58:41.000Z</time>
      </trkpt>
      <trkpt lat="42.149365" lon="-73.987125">
        <ele>105.418008</ele>
        <time>2024-09-15T09:58:43.000Z</time>
      </trkpt>
      <trkpt lat="42.148851" lon="-73.98737">
        <ele>105.548838</ele>
        <time>2024-09-15T09:58:49.000Z</time>
      </trkpt>
      <trkpt lat="42.147828" lon="-73.987861">
        <ele>105.129267</ele>
        <time>2024-09-15T09:59:01.000Z</time>
      </trkpt>
      <trkpt lat="42.14699" lon="-73.988248">
        <ele>104.344357</ele>
        <time>2024-09-15T09:59:11.000Z</time>
      </trkpt>
      <trkpt lat="42.14636" lon="-73.988413">
        <ele>103.340289</ele>
        <time>2024-09-15T09:59:18.000Z</time>
      </trkpt>
      <trkpt lat="42.145873" lon="-73.988559">
        <ele>102.556353</ele>
        <time>2024-09-15T09:59:24.000Z</time>
      </trkpt>
      <trkpt lat="42.145758" lon="-73.988539">
        <ele>102.374386</ele>
        <time>2024-09-15T09:59:25.000Z</time>
      </trkpt>
      <trkpt lat="42.145638" lon="-73.988483">
        <ele>102.176481</ele>
        <time>2024-09-15T09:59:26.000Z</time>
      </trkpt>
      <trkpt lat="42.145425" lon="-73.988337">
        <ele>101.935581</ele>
        <time>2024-09-15T09:59:29.000Z</time>
      </trkpt>
      <trkpt lat="42.145318" lon="-73.98827">
        <ele>101.815788</ele>
        <time>2024-09-15T09:59:30.000Z</time>
      </trkpt>
      <trkpt lat="42.145179" lon="-73.988267">
        <ele>101.683081</ele>
        <time>2024-09-15T09:59:32.000Z</time>
      </trkpt>
      <trkpt lat="42.144288" lon="-73.98864">
        <ele>100.785423</ele>
        <time>2024-09-15T09:59:42.000Z</time>
      </trkpt>
      <trkpt lat="42.144025" lon="-73.9887">
        <ele>100.524435</ele>
        <time>2024-09-15T09:59:45.000Z</time>
      </trkpt>
      <trkpt lat="42.143779" lon="-73.988744">
        <ele>100.376971</ele>
        <time>2024-09-15T09:59:48.000Z</time>
      </trkpt>
      <trkpt lat="42.143428" lon="-73.988905">
        <ele>100.288216</ele>
        <time>2024-09-15T09:59:52.000Z</time>
      </trkpt>
      <trkpt lat="42.143294" lon="-73.988978">
        <ele>100.252412</ele>
        <time>2024-09-15T09:59:54.000Z</time>
      </trkpt>
      <trkpt lat="42.142696" lon="-73.989124">
        <ele>100.114197</ele>
        <time>2024-09-15T10:00:01.000Z</time>
      </trkpt>
      <trkpt lat="42.14251" lon="-73.989162">
        <ele>100.069975</ele>
        <time>2024-09-15T10:00:03.000Z</time>
      </trkpt>
      <trkpt lat="42.142253" lon="-73.989254">
        <ele>100.003666</ele>
        <time>2024-09-15T10:00:06.000Z</time>
      </trkpt>
      <trkpt lat="42.141645" lon="-73.989656">
        <ele>99.996497</ele>
        <time>2024-09-15T10:00:14.000Z</time>
      </trkpt>
      <trkpt lat="42.141603" lon="-73.989355">
        <ele>100.002792</ele>
        <time>2024-09-15T10:00:17.000Z</time>
      </trkpt>
      <trkpt lat="42.141325" lon="-73.987489">
        <ele>100.134349</ele>
        <time>2024-09-15T10:00:33.000Z</time>
      </trkpt>
      <trkpt lat="42.140998" lon="-73.985872">
        <ele>100.448596</ele>
        <time>2024-09-15T10:00:47.000Z</time>
      </trkpt>
      <trkpt lat="42.140946" lon="-73.985769">
        <ele>100.470128</ele>
        <time>2024-09-15T10:00:48.000Z</time>
      </trkpt>
      <trkpt lat="42.140808" lon="-73.985684">
        <ele>100.409919</ele>
        <time>2024-09-15T10:00:50.000Z</time>
      </trkpt>
      <trkpt lat="42.14068" lon="-73.985663">
        <ele>100.295096</ele>
        <time>2024-09-15T10:00:51.000Z</time>
      </trkpt>
      <trkpt lat="42.140375" lon="-73.985699">
        <ele>100.032795</ele>
        <time>2024-09-15T10:00:54.000Z</time>
      </trkpt>
      <trkpt lat="42.140231" lon="-73.985685">
        <ele>99.905643</ele>
        <time>2024-09-15T10:00:56.000Z</time>
      </trkpt>
      <trkpt lat="42.139777" lon="-73.985599">
        <ele>99.508876</ele>
        <time>2024-09-15T10:01:01.000Z</time>
      </trkpt>
      <trkpt lat="42.139505" lon="-73.985466">
        <ele>99.254095</ele>
        <time>2024-09-15T10:01:04.000Z</time>
      </trkpt>
      <trkpt lat="42.139333" lon="-73.985327">
        <ele>99.082821</ele>
        <time>2024-09-15T10:01:06.000Z</time>
      </trkpt>
      <trkpt lat="42.139205" lon="-73.985186">
        <ele>98.935793</ele>
        <time>2024-09-15T10:01:08.000Z</time>
      </trkpt>
      <trkpt lat="42.138876" lon="-73.984568">
        <ele>98.137974</ele>
        <time>2024-09-15T10:01:14.000Z</time>
      </trkpt>
      <trkpt lat="42.138602" lon="-73.984284">
        <ele>97.666789</ele>
        <time>2024-09-15T10:01:18.000Z</time>
      </trkpt>
      <trkpt lat="42.138524" lon="-73.984154">
        <ele>97.485998</ele>
        <time>2024-09-15T10:01:19.000Z</time>
      </trkpt>
      <trkpt lat="42.138235" lon="-73.983344">
        <ele>96.541059</ele>
        <time>2024-09-15T10:01:26.000Z</time>
      </trkpt>
      <trkpt lat="42.138061" lon="-73.982766">
        <ele>96.020366</ele>
        <time>2024-09-15T10:01:31.000Z</time>
      </trkpt>
      <trkpt lat="42.138023" lon="-73.982636">
        <ele>95.896312</ele>
        <time>2024-09-15T10:01:32.000Z</time>
      </trkpt>
      <trkpt lat="42.137664" lon="-73.982203">
        <ele>95.386093</ele>
        <time>2024-09-15T10:01:37.000Z</time>
      </trkpt>
      <trkpt lat="42.137337" lon="-73.981685">
        <ele>94.850957</ele>
        <time>2024-09-15T10:01:43.000Z</time>
      </trkpt>
      <trkpt lat="42.136964" lon="-73.981191">
        <ele>94.183408</ele>
        <time>2024-09-15T10:01:49.000Z</time>
      </trkpt>
      <trkpt lat="42.136751" lon="-73.980833">
        <ele>93.608496</ele>
        <time>2024-09-15T10:01:53.000Z</time>
      </trkpt>
      <trkpt lat="42.136579" lon="-73.980423">
        <ele>93.018053</ele>
        <time>2024-09-15T10:01:57.000Z</time>
      </trkpt>
      <trkpt lat="42.13651" lon="-73.979724">
        <ele>92.126004</ele>
        <time>2024-09-15T10:02:03.000Z</time>
      </trkpt>
      <trkpt lat="42.136507" lon="-73.979562">
        <ele>91.909047</ele>
        <time>2024-09-15T10:02:04.000Z</time>
      </trkpt>
      <trkpt lat="42.136564" lon="-73.978988">
        <ele>90.697941</ele>
        <time>2024-09-15T10:02:09.000Z</time>
      </trkpt>
      <trkpt lat="42.136661" lon="-73.978385">
        <ele>88.223485</ele>
        <time>2024-09-15T10:02:14.000Z</time>
      </trkpt>
      <trkpt lat="42.136642" lon="-73.977467">
        <ele>84.403827</ele>
        <time>2024-09-15T10:02:22.000Z</time>
      </trkpt>
      <trkpt lat="42.136546" lon="-73.976359">
        <ele>79.505952</ele>
        <time>2024-09-15T10:02:31.000Z</time>
      </trkpt>
      <trkpt lat="42.136507" lon="-73.975294">
        <ele>74.145253</ele>
        <time>2024-09-15T10:02:40.000Z</time>
      </trkpt>
      <trkpt lat="42.13649" lon="-73.975101">
        <ele>73.200257</ele>
        <time>2024-09-15T10:02:42.000Z</time>
      </trkpt>
      <trkpt lat="42.136372" lon="-73.974309">
        <ele>69.18348</ele>
        <time>2024-09-15T10:02:49.000Z</time>
      </trkpt>
      <trkpt lat="42.13633" lon="-73.974204">
        <ele>68.671648</ele>
        <time>2024-09-15T10:02:50.000Z</time>
      </trkpt>
      <trkpt lat="42.136182" lon="-73.973961">
        <ele>67.448873</ele>
        <time>2024-09-15T10:02:53.000Z</time>
      </trkpt>
      <trkpt lat="42.135892" lon="-73.973725">
        <ele>65.531839</ele>
        <time>2024-09-15T10:02:57.000Z</time>
      </trkpt>
      <trkpt lat="42.135541" lon="-73.973314">
        <ele>62.931663</ele>
        <time>2024-09-15T10:03:02.000Z</time>
      </trkpt>
      <trkpt lat="42.135451" lon="-73.973086">
        <ele>61.911978</ele>
        <time>2024-09-15T10:03:04.000Z</time>
      </trkpt>
      <trkpt lat="42.135431" lon="-73.972986">
        <ele>61.417392</ele>
        <time>2024-09-15T10:03:05.000Z</time>
      </trkpt>
      <trkpt lat="42.135431" lon="-73.972523">
        <ele>59.529319</ele>
        <time>2024-09-15T10:03:09.000Z</time>
      </trkpt>
      <trkpt lat="42.135365" lon="-73.972026">
        <ele>58.005379</ele>
        <time>2024-09-15T10:03:13.000Z</time>
      </trkpt>
      <trkpt lat="42.135357" lon="-73.97175">
        <ele>57.26114</ele>
        <time>2024-09-15T10:03:15.000Z</time>
      </trkpt>
      <trkpt lat="42.135421" lon="-73.971452">
        <ele>56.346721</ele>
        <time>2024-09-15T10:03:18.000Z</time>
      </trkpt>
      <trkpt lat="42.135519" lon="-73.971198">
        <ele>55.538976</ele>
        <time>2024-09-15T10:03:20.000Z</time>
      </trkpt>
      <trkpt lat="42.135771" lon="-73.970811">
        <ele>54.100422</ele>
        <time>2024-09-15T10:03:24.000Z</time>
      </trkpt>
      <trkpt lat="42.136365" lon="-73.970174">
        <ele>51.737101</ele>
        <time>2024-09-15T10:03:32.000Z</time>
      </trkpt>
      <trkpt lat="42.136574" lon="-73.97003">
        <ele>51.255633</ele>
        <time>2024-09-15T10:03:35.000Z</time>
      </trkpt>
      <trkpt lat="42.136939" lon="-73.969853">
        <ele>50.414409</ele>
        <time>2024-09-15T10:03:39.000Z</time>
      </trkpt>
      <trkpt lat="42.137109" lon="-73.969718">
        <ele>50.032537</ele>
        <time>2024-09-15T10:03:41.000Z</time>
      </trkpt>
      <trkpt lat="42.137176" lon="-73.969652">
        <ele>49.849185</ele>
        <time>2024-09-15T10:03:42.000Z</time>
      </trkpt>
      <trkpt lat="42.137288" lon="-73.969441">
        <ele>49.444015</ele>
        <time>2024-09-15T10:03:44.000Z</time>
      </trkpt>
      <trkpt lat="42.137838" lon="-73.968058">
        <ele>46.741547</ele>
        <time>2024-09-15T10:03:57.000Z</time>
      </trkpt>
      <trkpt lat="42.137933" lon="-73.967768">
        <ele>46.171722</ele>
        <time>2024-09-15T10:04:00.000Z</time>
      </trkpt>
      <trkpt lat="42.137942" lon="-73.967751">
        <ele>46.134381</ele>
        <time>2024-09-15T10:04:00.000Z</time>
      </trkpt>
      <trkpt lat="42.137978" lon="-73.967568">
        <ele>45.805415</ele>
        <time>2024-09-15T10:04:02.000Z</time>
      </trkpt>
      <trkpt lat="42.137961" lon="-73.967491">
        <ele>45.640175</ele>
        <time>2024-09-15T10:04:03.000Z</time>
      </trkpt>
      <trkpt lat="42.137946" lon="-73.967385">
        <ele>45.449774</ele>
        <time>2024-09-15T10:04:04.000Z</time>
      </trkpt>
      <trkpt lat="42.137852" lon="-73.967239">
        <ele>45.102516</ele>
        <time>2024-09-15T10:04:06.000Z</time>
      </trkpt>
      <trkpt lat="42.137749" lon="-73.96717">
        <ele>44.816967</ele>
        <time>2024-09-15T10:04:07.000Z</time>
      </trkpt>
      <trkpt lat="42.136933" lon="-73.96661">
        <ele>43.645734</ele>
        <time>2024-09-15T10:04:17.000Z</time>
      </trkpt>
      <trkpt lat="42.134128" lon="-73.965554">
        <ele>43.441131</ele>
        <time>2024-09-15T10:04:49.000Z</time>
      </trkpt>
      <trkpt lat="42.133961" lon="-73.965404">
        <ele>44.152454</ele>
        <time>2024-09-15T10:04:51.000Z</time>
      </trkpt>
      <trkpt lat="42.133872" lon="-73.965213">
        <ele>44.781339</ele>
        <time>2024-09-15T10:04:53.000Z</time>
      </trkpt>
      <trkpt lat="42.133679" lon="-73.964501">
        <ele>46.776384</ele>
        <time>2024-09-15T10:04:59.000Z</time>
      </trkpt>
      <trkpt lat="42.133597" lon="-73.96412">
        <ele>47.88636</ele>
        <time>2024-09-15T10:05:02.000Z</time>
      </trkpt>
      <trkpt lat="42.133596" lon="-73.963893">
        <ele>48.463022</ele>
        <time>2024-09-15T10:05:04.000Z</time>
      </trkpt>
      <trkpt lat="42.133527" lon="-73.961863">
        <ele>55.229441</ele>
        <time>2024-09-15T10:05:21.000Z</time>
      </trkpt>
      <trkpt lat="42.133476" lon="-73.961573">
        <ele>56.328984</ele>
        <time>2024-09-15T10:05:23.000Z</time>
      </trkpt>
      <trkpt lat="42.133358" lon="-73.961428">
        <ele>57.082426</ele>
        <time>2024-09-15T10:05:25.000Z</time>
      </trkpt>
      <trkpt lat="42.133159" lon="-73.961405">
        <ele>58.002847</ele>
        <time>2024-09-15T10:05:27.000Z</time>
      </trkpt>
      <trkpt lat="42.132321" lon="-73.961661">
        <ele>60.844856</ele>
        <time>2024-09-15T10:05:37.000Z</time>
      </trkpt>
      <trkpt lat="42.132056" lon="-73.961701">
        <ele>61.666501</ele>
        <time>2024-09-15T10:05:40.000Z</time>
      </trkpt>
      <trkpt lat="42.131706" lon="-73.961673">
        <ele>62.704953</ele>
        <time>2024-09-15T10:05:44.000Z</time>
      </trkpt>
      <trkpt lat="42.131199" lon="-73.96151">
        <ele>64.248333</ele>
        <time>2024-09-15T10:05:50.000Z</time>
      </trkpt>
      <trkpt lat="42.13046" lon="-73.961135">
        <ele>66.097879</ele>
        <time>2024-09-15T10:05:59.000Z</time>
      </trkpt>
      <trkpt lat="42.130189" lon="-73.961062">
        <ele>66.74629</ele>
        <time>2024-09-15T10:06:02.000Z</time>
      </trkpt>
      <trkpt lat="42.129637" lon="-73.961017">
        <ele>68.060132</ele>
        <time>2024-09-15T10:06:08.000Z</time>
      </trkpt>
      <trkpt lat="42.129368" lon="-73.96096">
        <ele>68.448138</ele>
        <time>2024-09-15T10:06:11.000Z</time>
      </trkpt>
      <trkpt lat="42.129052" lon="-73.960865">
        <ele>68.74953</ele>
        <time>2024-09-15T10:06:15.000Z</time>
      </trkpt>
      <trkpt lat="42.128244" lon="-73.960472">
        <ele>69.568018</ele>
        <time>2024-09-15T10:06:25.000Z</time>
      </trkpt>
      <trkpt lat="42.127986" lon="-73.960348">
        <ele>69.83244</ele>
        <time>2024-09-15T10:06:28.000Z</time>
      </trkpt>
      <trkpt lat="42.127022" lon="-73.959811">
        <ele>69.393308</ele>
        <time>2024-09-15T10:06:40.000Z</time>
      </trkpt>
      <trkpt lat="42.126889" lon="-73.959686">
        <ele>69.276081</ele>
        <time>2024-09-15T10:06:42.000Z</time>
      </trkpt>
      <trkpt lat="42.12661" lon="-73.959384">
        <ele>69.03385</ele>
        <time>2024-09-15T10:06:46.000Z</time>
      </trkpt>
      <trkpt lat="42.127688" lon="-73.958946">
        <ele>69.03172</ele>
        <time>2024-09-15T10:06:59.000Z</time>
      </trkpt>
      <trkpt lat="42.127914" lon="-73.958882">
        <ele>69.119894</ele>
        <time>2024-09-15T10:07:02.000Z</time>
      </trkpt>
      <trkpt lat="42.128594" lon="-73.958804">
        <ele>69.372733</ele>
        <time>2024-09-15T10:07:10.000Z</time>
      </trkpt>
      <trkpt lat="42.128702" lon="-73.958786">
        <ele>69.412551</ele>
        <time>2024-09-15T10:07:11.000Z</time>
      </trkpt>
      <trkpt lat="42.128938" lon="-73.958771">
        <ele>69.449396</ele>
        <time>2024-09-15T10:07:14.000Z</time>
      </trkpt>
      <trkpt lat="42.129112" lon="-73.95875">
        <ele>69.468076</ele>
        <time>2024-09-15T10:07:16.000Z</time>
      </trkpt>
      <trkpt lat="42.130066" lon="-73.958678">
        <ele>69.577183</ele>
        <time>2024-09-15T10:07:27.000Z</time>
      </trkpt>
      <trkpt lat="42.130256" lon="-73.958628">
        <ele>69.600343</ele>
        <time>2024-09-15T10:07:29.000Z</time>
      </trkpt>
      <trkpt lat="42.1304" lon="-73.95858">
        <ele>69.616059</ele>
        <time>2024-09-15T10:07:31.000Z</time>
      </trkpt>
      <trkpt lat="42.130744" lon="-73.958291">
        <ele>69.358851</ele>
        <time>2024-09-15T10:07:36.000Z</time>
      </trkpt>
      <trkpt lat="42.130897" lon="-73.958119">
        <ele>69.143502</ele>
        <time>2024-09-15T10:07:38.000Z</time>
      </trkpt>
      <trkpt lat="42.131187" lon="-73.957938">
        <ele>68.813631</ele>
        <time>2024-09-15T10:07:42.000Z</time>
      </trkpt>
      <trkpt lat="42.131754" lon="-73.957688">
        <ele>68.201882</ele>
        <time>2024-09-15T10:07:49.000Z</time>
      </trkpt>
      <trkpt lat="42.132359" lon="-73.957426">
        <ele>67.56264</ele>
        <time>2024-09-15T10:07:56.000Z</time>
      </trkpt>
      <trkpt lat="42.132563" lon="-73.957361">
        <ele>67.365843</ele>
        <time>2024-09-15T10:07:58.000Z</time>
      </trkpt>
      <trkpt lat="42.132851" lon="-73.957291">
        <ele>67.086051</ele>
        <time>2024-09-15T10:08:01.000Z</time>
      </trkpt>
      <trkpt lat="42.133423" lon="-73.957201">
        <ele>66.565935</ele>
        <time>2024-09-15T10:08:07.000Z</time>
      </trkpt>
      <trkpt lat="42.133497" lon="-73.957172">
        <ele>66.500465</ele>
        <time>2024-09-15T10:08:08.000Z</time>
      </trkpt>
      <trkpt lat="42.133848" lon="-73.957034">
        <ele>66.151586</ele>
        <time>2024-09-15T10:08:12.000Z</time>
      </trkpt>
      <trkpt lat="42.134428" lon="-73.956762">
        <ele>65.699185</ele>
        <time>2024-09-15T10:08:19.000Z</time>
      </trkpt>
      <trkpt lat="42.135045" lon="-73.956374">
        <ele>65.19373</ele>
        <time>2024-09-15T10:08:27.000Z</time>
      </trkpt>
      <trkpt lat="42.135599" lon="-73.956003">
        <ele>64.732626</ele>
        <time>2024-09-15T10:08:34.000Z</time>
      </trkpt>
      <trkpt lat="42.136008" lon="-73.955768">
        <ele>64.275982</ele>
        <time>2024-09-15T10:08:39.000Z</time>
      </trkpt>
      <trkpt lat="42.136287" lon="-73.955642">
        <ele>63.982142</ele>
        <time>2024-09-15T10:08:42.000Z</time>
      </trkpt>
      <trkpt lat="42.137151" lon="-73.955432">
        <ele>63.103848</ele>
        <time>2024-09-15T10:08:52.000Z</time>
      </trkpt>
      <trkpt lat="42.13811" lon="-73.955191">
        <ele>61.623819</ele>
        <time>2024-09-15T10:09:03.000Z</time>
      </trkpt>
      <trkpt lat="42.138984" lon="-73.954817">
        <ele>60.139923</ele>
        <time>2024-09-15T10:09:13.000Z</time>
      </trkpt>
      <trkpt lat="42.139395" lon="-73.954623">
        <ele>58.901162</ele>
        <time>2024-09-15T10:09:18.000Z</time>
      </trkpt>
      <trkpt lat="42.139854" lon="-73.954218">
        <ele>57.343326</ele>
        <time>2024-09-15T10:09:24.000Z</time>
      </trkpt>
      <trkpt lat="42.14016" lon="-73.954057">
        <ele>56.411074</ele>
        <time>2024-09-15T10:09:28.000Z</time>
      </trkpt>
      <trkpt lat="42.141402" lon="-73.953668">
        <ele>53.340478</ele>
        <time>2024-09-15T10:09:42.000Z</time>
      </trkpt>
      <trkpt lat="42.140479" lon="-73.95237">
        <ele>50.8603</ele>
        <time>2024-09-15T10:09:57.000Z</time>
      </trkpt>
      <trkpt lat="42.140202" lon="-73.951934">
        <ele>50.415897</ele>
        <time>2024-09-15T10:10:02.000Z</time>
      </trkpt>
      <trkpt lat="42.139213" lon="-73.949719">
        <ele>48.835901</ele>
        <time>2024-09-15T10:10:23.000Z</time>
      </trkpt>
      <trkpt lat="42.138908" lon="-73.949004">
        <ele>48.520664</ele>
        <time>2024-09-15T10:10:30.000Z</time>
      </trkpt>
      <trkpt lat="42.137989" lon="-73.946932">
        <ele>48.937208</ele>
        <time>2024-09-15T10:10:50.000Z</time>
      </trkpt>
      <trkpt lat="42.137845" lon="-73.946553">
        <ele>49.071511</ele>
        <time>2024-09-15T10:10:54.000Z</time>
      </trkpt>
      <trkpt lat="42.137566" lon="-73.945777">
        <ele>49.016328</ele>
        <time>2024-09-15T10:11:01.000Z</time>
      </trkpt>
      <trkpt lat="42.137446" lon="-73.945546">
        <ele>48.989484</ele>
        <time>2024-09-15T10:11:03.000Z</time>
      </trkpt>
      <trkpt lat="42.137345" lon="-73.945422">
        <ele>48.971256</ele>
        <time>2024-09-15T10:11:05.000Z</time>
      </trkpt>
      <trkpt lat="42.137233" lon="-73.945339">
        <ele>48.954741</ele>
        <time>2024-09-15T10:11:06.000Z</time>
      </trkpt>
      <trkpt lat="42.137" lon="-73.945333">
        <ele>48.923182</ele>
        <time>2024-09-15T10:11:09.000Z</time>
      </trkpt>
      <trkpt lat="42.136473" lon="-73.945566">
        <ele>48.846481</ele>
        <time>2024-09-15T10:11:15.000Z</time>
      </trkpt>
      <trkpt lat="42.136196" lon="-73.945566">
        <ele>48.797764</ele>
        <time>2024-09-15T10:11:18.000Z</time>
      </trkpt>
      <trkpt lat="42.136062" lon="-73.945507">
        <ele>48.772683</ele>
        <time>2024-09-15T10:11:20.000Z</time>
      </trkpt>
      <trkpt lat="42.135872" lon="-73.945366">
        <ele>48.735329</ele>
        <time>2024-09-15T10:11:22.000Z</time>
      </trkpt>
      <trkpt lat="42.135671" lon="-73.945145">
        <ele>48.69184</ele>
        <time>2024-09-15T10:11:25.000Z</time>
      </trkpt>
      <trkpt lat="42.135502" lon="-73.944978">
        <ele>48.654376</ele>
        <time>2024-09-15T10:11:27.000Z</time>
      </trkpt>
      <trkpt lat="42.134955" lon="-73.94435">
        <ele>48.572253</ele>
        <time>2024-09-15T10:11:35.000Z</time>
      </trkpt>
      <trkpt lat="42.134336" lon="-73.943727">
        <ele>48.900027</ele>
        <time>2024-09-15T10:11:44.000Z</time>
      </trkpt>
      <trkpt lat="42.134161" lon="-73.943521">
        <ele>48.994436</ele>
        <time>2024-09-15T10:11:47.000Z</time>
      </trkpt>
      <trkpt lat="42.134109" lon="-73.943413">
        <ele>49.041498</ele>
        <time>2024-09-15T10:11:48.000Z</time>
      </trkpt>
      <trkpt lat="42.133895" lon="-73.942558">
        <ele>49.321227</ele>
        <time>2024-09-15T10:11:55.000Z</time>
      </trkpt>
      <trkpt lat="42.13381" lon="-73.942329">
        <ele>49.382345</ele>
        <time>2024-09-15T10:11:57.000Z</time>
      </trkpt>
      <trkpt lat="42.133755" lon="-73.942239">
        <ele>49.408</ele>
        <time>2024-09-15T10:11:58.000Z</time>
      </trkpt>
      <trkpt lat="42.133458" lon="-73.941946">
        <ele>49.52828</ele>
        <time>2024-09-15T10:12:02.000Z</time>
      </trkpt>
      <trkpt lat="42.1333" lon="-73.9417">
        <ele>49.608881</ele>
        <time>2024-09-15T10:12:05.000Z</time>
      </trkpt>
      <trkpt lat="42.132644" lon="-73.940486">
        <ele>49.994322</ele>
        <time>2024-09-15T10:12:17.000Z</time>
      </trkpt>
      <trkpt lat="42.132325" lon="-73.939939">
        <ele>50.209855</ele>
        <time>2024-09-15T10:12:23.000Z</time>
      </trkpt>
      <trkpt lat="42.132134" lon="-73.939689">
        <ele>50.323875</ele>
        <time>2024-09-15T10:12:26.000Z</time>
      </trkpt>
      <trkpt lat="42.132018" lon="-73.939573">
        <ele>50.381494</ele>
        <time>2024-09-15T10:12:28.000Z</time>
      </trkpt>
      <trkpt lat="42.13177" lon="-73.939396">
        <ele>50.497792</ele>
        <time>2024-09-15T10:12:31.000Z</time>
      </trkpt>
      <trkpt lat="42.13165" lon="-73.939317">
        <ele>50.554716</ele>
        <time>2024-09-15T10:12:32.000Z</time>
      </trkpt>
      <trkpt lat="42.131003" lon="-73.939223">
        <ele>50.344174</ele>
        <time>2024-09-15T10:12:39.000Z</time>
      </trkpt>
      <trkpt lat="42.130603" lon="-73.939156">
        <ele>50.053331</ele>
        <time>2024-09-15T10:12:43.000Z</time>
      </trkpt>
      <trkpt lat="42.130393" lon="-73.939028">
        <ele>49.887783</ele>
        <time>2024-09-15T10:12:46.000Z</time>
      </trkpt>
      <trkpt lat="42.130344" lon="-73.939163">
        <ele>49.810558</ele>
        <time>2024-09-15T10:12:47.000Z</time>
      </trkpt>
      <trkpt lat="42.130203" lon="-73.939914">
        <ele>49.407197</ele>
        <time>2024-09-15T10:12:53.000Z</time>
      </trkpt>
      <trkpt lat="42.130181" lon="-73.940049">
        <ele>49.322752</ele>
        <time>2024-09-15T10:12:54.000Z</time>
      </trkpt>
      <trkpt lat="42.129938" lon="-73.94151">
        <ele>48.365885</ele>
        <time>2024-09-15T10:13:06.000Z</time>
      </trkpt>
      <trkpt lat="42.129819" lon="-73.94184">
        <ele>48.125369</ele>
        <time>2024-09-15T10:13:09.000Z</time>
      </trkpt>
      <trkpt lat="42.129711" lon="-73.941984">
        <ele>47.999323</ele>
        <time>2024-09-15T10:13:11.000Z</time>
      </trkpt>
      <trkpt lat="42.129514" lon="-73.942101">
        <ele>47.822455</ele>
        <time>2024-09-15T10:13:13.000Z</time>
      </trkpt>
      <trkpt lat="42.128662" lon="-73.9423">
        <ele>48.291385</ele>
        <time>2024-09-15T10:13:23.000Z</time>
      </trkpt>
      <trkpt lat="42.127889" lon="-73.942414">
        <ele>48.714581</ele>
        <time>2024-09-15T10:13:32.000Z</time>
      </trkpt>
      <trkpt lat="42.127573" lon="-73.942536">
        <ele>48.879818</ele>
        <time>2024-09-15T10:13:36.000Z</time>
      </trkpt>
      <trkpt lat="42.127145" lon="-73.942735">
        <ele>49.08184</ele>
        <time>2024-09-15T10:13:41.000Z</time>
      </trkpt>
      <trkpt lat="42.126727" lon="-73.942994">
        <ele>49.286532</ele>
        <time>2024-09-15T10:13:46.000Z</time>
      </trkpt>
      <trkpt lat="42.126118" lon="-73.943551">
        <ele>49.608204</ele>
        <time>2024-09-15T10:13:54.000Z</time>
      </trkpt>
      <trkpt lat="42.125758" lon="-73.943905">
        <ele>49.691056</ele>
        <time>2024-09-15T10:13:59.000Z</time>
      </trkpt>
      <trkpt lat="42.125613" lon="-73.944038">
        <ele>49.723888</ele>
        <time>2024-09-15T10:14:01.000Z</time>
      </trkpt>
      <trkpt lat="42.125535" lon="-73.944121">
        <ele>49.743264</ele>
        <time>2024-09-15T10:14:02.000Z</time>
      </trkpt>
      <trkpt lat="42.125312" lon="-73.944374">
        <ele>49.796938</ele>
        <time>2024-09-15T10:14:05.000Z</time>
      </trkpt>
      <trkpt lat="42.124478" lon="-73.945275">
        <ele>49.813913</ele>
        <time>2024-09-15T10:14:17.000Z</time>
      </trkpt>
      <trkpt lat="42.124228" lon="-73.945634">
        <ele>49.668666</ele>
        <time>2024-09-15T10:14:21.000Z</time>
      </trkpt>
      <trkpt lat="42.12381" lon="-73.946255">
        <ele>49.41953</ele>
        <time>2024-09-15T10:14:28.000Z</time>
      </trkpt>
      <trkpt lat="42.123644" lon="-73.946472">
        <ele>49.32838</ele>
        <time>2024-09-15T10:14:31.000Z</time>
      </trkpt>
      <trkpt lat="42.123586" lon="-73.946681">
        <ele>49.267451</ele>
        <time>2024-09-15T10:14:33.000Z</time>
      </trkpt>
      <trkpt lat="42.123557" lon="-73.946768">
        <ele>49.23516</ele>
        <time>2024-09-15T10:14:34.000Z</time>
      </trkpt>
      <trkpt lat="42.123441" lon="-73.946955">
        <ele>49.006857</ele>
        <time>2024-09-15T10:14:36.000Z</time>
      </trkpt>
      <trkpt lat="42.122787" lon="-73.947542">
        <ele>47.923653</ele>
        <time>2024-09-15T10:14:45.000Z</time>
      </trkpt>
      <trkpt lat="42.122553" lon="-73.947838">
        <ele>47.485831</ele>
        <time>2024-09-15T10:14:49.000Z</time>
      </trkpt>
      <trkpt lat="42.122444" lon="-73.948189">
        <ele>47.091021</ele>
        <time>2024-09-15T10:14:52.000Z</time>
      </trkpt>
      <trkpt lat="42.122324" lon="-73.948677">
        <ele>46.65681</ele>
        <time>2024-09-15T10:14:56.000Z</time>
      </trkpt>
      <trkpt lat="42.122314" lon="-73.948617">
        <ele>46.623571</ele>
        <time>2024-09-15T10:14:57.000Z</time>
      </trkpt>
      <trkpt lat="42.121949" lon="-73.947882">
        <ele>46.13543</ele>
        <time>2024-09-15T10:15:04.000Z</time>
      </trkpt>
      <trkpt lat="42.121112" lon="-73.945978">
        <ele>45.102902</ele>
        <time>2024-09-15T10:15:22.000Z</time>
      </trkpt>
      <trkpt lat="42.121116" lon="-73.945959">
        <ele>45.094496</ele>
        <time>2024-09-15T10:15:22.000Z</time>
      </trkpt>
      <trkpt lat="42.120946" lon="-73.945577">
        <ele>44.945244</ele>
        <time>2024-09-15T10:15:26.000Z</time>
      </trkpt>
      <trkpt lat="42.12074" lon="-73.945268">
        <ele>44.800117</ele>
        <time>2024-09-15T10:15:29.000Z</time>
      </trkpt>
      <trkpt lat="42.120679" lon="-73.945119">
        <ele>44.74349</ele>
        <time>2024-09-15T10:15:30.000Z</time>
      </trkpt>
      <trkpt lat="42.120639" lon="-73.944918">
        <ele>44.670829</ele>
        <time>2024-09-15T10:15:32.000Z</time>
      </trkpt>
      <trkpt lat="42.120596" lon="-73.944681">
        <ele>44.587638</ele>
        <time>2024-09-15T10:15:34.000Z</time>
      </trkpt>
      <trkpt lat="42.120498" lon="-73.944348">
        <ele>44.574482</ele>
        <time>2024-09-15T10:15:37.000Z</time>
      </trkpt>
      <trkpt lat="42.119161" lon="-73.94095">
        <ele>45.191997</ele>
        <time>2024-09-15T10:16:09.000Z</time>
      </trkpt>
      <trkpt lat="42.119147" lon="-73.940912">
        <ele>45.201297</ele>
        <time>2024-09-15T10:16:09.000Z</time>
      </trkpt>
      <trkpt lat="42.118736" lon="-73.940048">
        <ele>45.852854</ele>
        <time>2024-09-15T10:16:17.000Z</time>
      </trkpt>
      <trkpt lat="42.117643" lon="-73.937983">
        <ele>48.084224</ele>
        <time>2024-09-15T10:16:38.000Z</time>
      </trkpt>
      <trkpt lat="42.11754" lon="-73.937683">
        <ele>48.131964</ele>
        <time>2024-09-15T10:16:41.000Z</time>
      </trkpt>
      <trkpt lat="42.117451" lon="-73.937148">
        <ele>48.205014</ele>
        <time>2024-09-15T10:16:46.000Z</time>
      </trkpt>
      <trkpt lat="42.117407" lon="-73.936772">
        <ele>48.257034</ele>
        <time>2024-09-15T10:16:49.000Z</time>
      </trkpt>
      <trkpt lat="42.11728" lon="-73.935243">
        <ele>47.925865</ele>
        <time>2024-09-15T10:17:02.000Z</time>
      </trkpt>
      <trkpt lat="42.117218" lon="-73.934949">
        <ele>47.778558</ele>
        <time>2024-09-15T10:17:05.000Z</time>
      </trkpt>
      <trkpt lat="42.116972" lon="-73.935173">
        <ele>47.590426</ele>
        <time>2024-09-15T10:17:08.000Z</time>
      </trkpt>
      <trkpt lat="42.116651" lon="-73.935433">
        <ele>47.346424</ele>
        <time>2024-09-15T10:17:12.000Z</time>
      </trkpt>
      <trkpt lat="42.116476" lon="-73.935531">
        <ele>47.22151</ele>
        <time>2024-09-15T10:17:14.000Z</time>
      </trkpt>
      <trkpt lat="42.116194" lon="-73.935624">
        <ele>47.215455</ele>
        <time>2024-09-15T10:17:17.000Z</time>
      </trkpt>
      <trkpt lat="42.114746" lon="-73.935969">
        <ele>47.482977</ele>
        <time>2024-09-15T10:17:33.000Z</time>
      </trkpt>
      <trkpt lat="42.113906" lon="-73.936178">
        <ele>47.104977</ele>
        <time>2024-09-15T10:17:42.000Z</time>
      </trkpt>
      <trkpt lat="42.113091" lon="-73.93626">
        <ele>46.663049</ele>
        <time>2024-09-15T10:17:51.000Z</time>
      </trkpt>
      <trkpt lat="42.112716" lon="-73.936236">
        <ele>46.357774</ele>
        <time>2024-09-15T10:17:55.000Z</time>
      </trkpt>
      <trkpt lat="42.112527" lon="-73.936188">
        <ele>46.121411</ele>
        <time>2024-09-15T10:17:57.000Z</time>
      </trkpt>
      <trkpt lat="42.111778" lon="-73.935931">
        <ele>45.171331</ele>
        <time>2024-09-15T10:18:06.000Z</time>
      </trkpt>
      <trkpt lat="42.111604" lon="-73.935922">
        <ele>44.936049</ele>
        <time>2024-09-15T10:18:08.000Z</time>
      </trkpt>
      <trkpt lat="42.111389" lon="-73.935963">
        <ele>44.667818</ele>
        <time>2024-09-15T10:18:10.000Z</time>
      </trkpt>
      <trkpt lat="42.111095" lon="-73.936083">
        <ele>44.296361</ele>
        <time>2024-09-15T10:18:13.000Z</time>
      </trkpt>
      <trkpt lat="42.109414" lon="-73.937083">
        <ele>43.610488</ele>
        <time>2024-09-15T10:18:33.000Z</time>
      </trkpt>
      <trkpt lat="42.10909" lon="-73.93727">
        <ele>43.696404</ele>
        <time>2024-09-15T10:18:37.000Z</time>
      </trkpt>
      <trkpt lat="42.1088" lon="-73.937436">
        <ele>43.769032</ele>
        <time>2024-09-15T10:18:41.000Z</time>
      </trkpt>
      <trkpt lat="42.108436" lon="-73.937616">
        <ele>43.862206</ele>
        <time>2024-09-15T10:18:45.000Z</time>
      </trkpt>
      <trkpt lat="42.108052" lon="-73.93772">
        <ele>43.959916</ele>
        <time>2024-09-15T10:18:49.000Z</time>
      </trkpt>
      <trkpt lat="42.107386" lon="-73.937782">
        <ele>43.936831</ele>
        <time>2024-09-15T10:18:56.000Z</time>
      </trkpt>
      <trkpt lat="42.105947" lon="-73.93789">
        <ele>43.543173</ele>
        <time>2024-09-15T10:19:12.000Z</time>
      </trkpt>
      <trkpt lat="42.10577" lon="-73.937915">
        <ele>43.606219</ele>
        <time>2024-09-15T10:19:14.000Z</time>
      </trkpt>
      <trkpt lat="42.105304" lon="-73.937929">
        <ele>43.784437</ele>
        <time>2024-09-15T10:19:19.000Z</time>
      </trkpt>
      <trkpt lat="42.105057" lon="-73.937913">
        <ele>43.874535</ele>
        <time>2024-09-15T10:19:22.000Z</time>
      </trkpt>
      <trkpt lat="42.103999" lon="-73.937711">
        <ele>44.202979</ele>
        <time>2024-09-15T10:19:34.000Z</time>
      </trkpt>
      <trkpt lat="42.103375" lon="-73.937547">
        <ele>44.181387</ele>
        <time>2024-09-15T10:19:41.000Z</time>
      </trkpt>
      <trkpt lat="42.103011" lon="-73.937504">
        <ele>44.168391</ele>
        <time>2024-09-15T10:19:45.000Z</time>
      </trkpt>
      <trkpt lat="42.102688" lon="-73.937527">
        <ele>44.156811</ele>
        <time>2024-09-15T10:19:49.000Z</time>
      </trkpt>
      <trkpt lat="42.102305" lon="-73.937629">
        <ele>44.187293</ele>
        <time>2024-09-15T10:19:53.000Z</time>
      </trkpt>
      <trkpt lat="42.101799" lon="-73.937833">
        <ele>44.433284</ele>
        <time>2024-09-15T10:19:59.000Z</time>
      </trkpt>
      <trkpt lat="42.101247" lon="-73.938099">
        <ele>44.718708</ele>
        <time>2024-09-15T10:20:06.000Z</time>
      </trkpt>
      <trkpt lat="42.100115" lon="-73.938586">
        <ele>46.287684</ele>
        <time>2024-09-15T10:20:19.000Z</time>
      </trkpt>
      <trkpt lat="42.099641" lon="-73.938748">
        <ele>47.35806</ele>
        <time>2024-09-15T10:20:24.000Z</time>
      </trkpt>
      <trkpt lat="42.099354" lon="-73.938819">
        <ele>47.981217</ele>
        <time>2024-09-15T10:20:27.000Z</time>
      </trkpt>
      <trkpt lat="42.098286" lon="-73.938904">
        <ele>50.612419</ele>
        <time>2024-09-15T10:20:39.000Z</time>
      </trkpt>
      <trkpt lat="42.097505" lon="-73.939023">
        <ele>52.732409</ele>
        <time>2024-09-15T10:20:48.000Z</time>
      </trkpt>
      <trkpt lat="42.097259" lon="-73.939058">
        <ele>53.387305</ele>
        <time>2024-09-15T10:20:51.000Z</time>
      </trkpt>
      <trkpt lat="42.096664" lon="-73.93918">
        <ele>53.967306</ele>
        <time>2024-09-15T10:20:58.000Z</time>
      </trkpt>
      <trkpt lat="42.096432" lon="-73.939249">
        <ele>54.091111</ele>
        <time>2024-09-15T10:21:01.000Z</time>
      </trkpt>
      <trkpt lat="42.096069" lon="-73.939374">
        <ele>54.294108</ele>
        <time>2024-09-15T10:21:05.000Z</time>
      </trkpt>
      <trkpt lat="42.095959" lon="-73.939425">
        <ele>54.347258</ele>
        <time>2024-09-15T10:21:06.000Z</time>
      </trkpt>
      <trkpt lat="42.095373" lon="-73.939687">
        <ele>54.628922</ele>
        <time>2024-09-15T10:21:13.000Z</time>
      </trkpt>
      <trkpt lat="42.095027" lon="-73.939796">
        <ele>54.154853</ele>
        <time>2024-09-15T10:21:17.000Z</time>
      </trkpt>
      <trkpt lat="42.094429" lon="-73.939962">
        <ele>53.324805</ele>
        <time>2024-09-15T10:21:24.000Z</time>
      </trkpt>
      <trkpt lat="42.094139" lon="-73.939978">
        <ele>52.930025</ele>
        <time>2024-09-15T10:21:27.000Z</time>
      </trkpt>
      <trkpt lat="42.094019" lon="-73.939942">
        <ele>52.743242</ele>
        <time>2024-09-15T10:21:28.000Z</time>
      </trkpt>
      <trkpt lat="42.093248" lon="-73.939741">
        <ele>51.318169</ele>
        <time>2024-09-15T10:21:37.000Z</time>
      </trkpt>
      <trkpt lat="42.092866" lon="-73.939677">
        <ele>50.413152</ele>
        <time>2024-09-15T10:21:41.000Z</time>
      </trkpt>
      <trkpt lat="42.091881" lon="-73.939616">
        <ele>48.151348</ele>
        <time>2024-09-15T10:21:52.000Z</time>
      </trkpt>
      <trkpt lat="42.091431" lon="-73.939631">
        <ele>47.182553</ele>
        <time>2024-09-15T10:21:57.000Z</time>
      </trkpt>
      <trkpt lat="42.090996" lon="-73.939723">
        <ele>46.24135</ele>
        <time>2024-09-15T10:22:02.000Z</time>
      </trkpt>
      <trkpt lat="42.090651" lon="-73.939793">
        <ele>45.505795</ele>
        <time>2024-09-15T10:22:06.000Z</time>
      </trkpt>
      <trkpt lat="42.09037" lon="-73.939963">
        <ele>44.840489</ele>
        <time>2024-09-15T10:22:09.000Z</time>
      </trkpt>
      <trkpt lat="42.090025" lon="-73.940272">
        <ele>44.112859</ele>
        <time>2024-09-15T10:22:14.000Z</time>
      </trkpt>
      <trkpt lat="42.089699" lon="-73.94065">
        <ele>43.7222</ele>
        <time>2024-09-15T10:22:19.000Z</time>
      </trkpt>
      <trkpt lat="42.089409" lon="-73.940973">
        <ele>43.382958</ele>
        <time>2024-09-15T10:22:23.000Z</time>
      </trkpt>
      <trkpt lat="42.089146" lon="-73.941209">
        <ele>43.1052</ele>
        <time>2024-09-15T10:22:27.000Z</time>
      </trkpt>
      <trkpt lat="42.088723" lon="-73.941461">
        <ele>42.681966</ele>
        <time>2024-09-15T10:22:32.000Z</time>
      </trkpt>
      <trkpt lat="42.088268" lon="-73.941618">
        <ele>42.283608</ele>
        <time>2024-09-15T10:22:37.000Z</time>
      </trkpt>
      <trkpt lat="42.087398" lon="-73.941719">
        <ele>41.539129</ele>
        <time>2024-09-15T10:22:47.000Z</time>
      </trkpt>
      <trkpt lat="42.086875" lon="-73.941819">
        <ele>41.08562</ele>
        <time>2024-09-15T10:22:53.000Z</time>
      </trkpt>
      <trkpt lat="42.085487" lon="-73.94236">
        <ele>41.518045</ele>
        <time>2024-09-15T10:23:09.000Z</time>
      </trkpt>
      <trkpt lat="42.085006" lon="-73.942668">
        <ele>42.165856</ele>
        <time>2024-09-15T10:23:15.000Z</time>
      </trkpt>
      <trkpt lat="42.084421" lon="-73.943182">
        <ele>44.599416</ele>
        <time>2024-09-15T10:23:23.000Z</time>
      </trkpt>
      <trkpt lat="42.084282" lon="-73.94331">
        <ele>45.195545</ele>
        <time>2024-09-15T10:23:25.000Z</time>
      </trkpt>
      <trkpt lat="42.084193" lon="-73.943385">
        <ele>45.558281</ele>
        <time>2024-09-15T10:23:26.000Z</time>
      </trkpt>
      <trkpt lat="42.083826" lon="-73.943633">
        <ele>46.98464</ele>
        <time>2024-09-15T10:23:31.000Z</time>
      </trkpt>
      <trkpt lat="42.083559" lon="-73.943734">
        <ele>47.92056</ele>
        <time>2024-09-15T10:23:34.000Z</time>
      </trkpt>
      <trkpt lat="42.083033" lon="-73.943816">
        <ele>48.842396</ele>
        <time>2024-09-15T10:23:40.000Z</time>
      </trkpt>
      <trkpt lat="42.082452" lon="-73.943935">
        <ele>49.866386</ele>
        <time>2024-09-15T10:23:47.000Z</time>
      </trkpt>
      <trkpt lat="42.082246" lon="-73.943973">
        <ele>50.231059</ele>
        <time>2024-09-15T10:23:49.000Z</time>
      </trkpt>
      <trkpt lat="42.081893" lon="-73.944028">
        <ele>50.871616</ele>
        <time>2024-09-15T10:23:53.000Z</time>
      </trkpt>
      <trkpt lat="42.081537" lon="-73.944087">
        <ele>50.473532</ele>
        <time>2024-09-15T10:23:57.000Z</time>
      </trkpt>
      <trkpt lat="42.080727" lon="-73.944115">
        <ele>48.749233</ele>
        <time>2024-09-15T10:24:06.000Z</time>
      </trkpt>
      <trkpt lat="42.080534" lon="-73.944092">
        <ele>48.334221</ele>
        <time>2024-09-15T10:24:08.000Z</time>
      </trkpt>
      <trkpt lat="42.080357" lon="-73.944118">
        <ele>47.946893</ele>
        <time>2024-09-15T10:24:10.000Z</time>
      </trkpt>
      <trkpt lat="42.080294" lon="-73.944307">
        <ele>47.601391</ele>
        <time>2024-09-15T10:24:12.000Z</time>
      </trkpt>
      <trkpt lat="42.079961" lon="-73.945802">
        <ele>45.704504</ele>
        <time>2024-09-15T10:24:25.000Z</time>
      </trkpt>
      <trkpt lat="42.079904" lon="-73.946082">
        <ele>45.390301</ele>
        <time>2024-09-15T10:24:27.000Z</time>
      </trkpt>
      <trkpt lat="42.079802" lon="-73.946525">
        <ele>44.852525</ele>
        <time>2024-09-15T10:24:31.000Z</time>
      </trkpt>
      <trkpt lat="42.079698" lon="-73.946877">
        <ele>44.427451</ele>
        <time>2024-09-15T10:24:34.000Z</time>
      </trkpt>
      <trkpt lat="42.079587" lon="-73.947203">
        <ele>44.526611</ele>
        <time>2024-09-15T10:24:37.000Z</time>
      </trkpt>
      <trkpt lat="42.079341" lon="-73.947912">
        <ele>44.762387</ele>
        <time>2024-09-15T10:24:43.000Z</time>
      </trkpt>
      <trkpt lat="42.079011" lon="-73.948842">
        <ele>45.065565</ele>
        <time>2024-09-15T10:24:52.000Z</time>
      </trkpt>
      <trkpt lat="42.078587" lon="-73.950044">
        <ele>45.333982</ele>
        <time>2024-09-15T10:25:03.000Z</time>
      </trkpt>
      <trkpt lat="42.078239" lon="-73.951078">
        <ele>45.540285</ele>
        <time>2024-09-15T10:25:12.000Z</time>
      </trkpt>
      <trkpt lat="42.077784" lon="-73.952423">
        <ele>44.360717</ele>
        <time>2024-09-15T10:25:24.000Z</time>
      </trkpt>
      <trkpt lat="42.077142" lon="-73.952107">
        <ele>43.476092</ele>
        <time>2024-09-15T10:25:32.000Z</time>
      </trkpt>
      <trkpt lat="42.0767" lon="-73.951904">
        <ele>41.775586</ele>
        <time>2024-09-15T10:25:37.000Z</time>
      </trkpt>
      <trkpt lat="42.076295" lon="-73.951701">
        <ele>39.574317</ele>
        <time>2024-09-15T10:25:42.000Z</time>
      </trkpt>
      <trkpt lat="42.076022" lon="-73.951564">
        <ele>38.038708</ele>
        <time>2024-09-15T10:25:45.000Z</time>
      </trkpt>
      <trkpt lat="42.075845" lon="-73.951501">
        <ele>37.108853</ele>
        <time>2024-09-15T10:25:47.000Z</time>
      </trkpt>
      <trkpt lat="42.075681" lon="-73.95143">
        <ele>36.265393</ele>
        <time>2024-09-15T10:25:49.000Z</time>
      </trkpt>
      <trkpt lat="42.075403" lon="-73.951323">
        <ele>34.788933</ele>
        <time>2024-09-15T10:25:52.000Z</time>
      </trkpt>
      <trkpt lat="42.074927" lon="-73.951112">
        <ele>33.3501694076</ele>
        <time>2024-09-15T10:25:58.000Z</time>
      </trkpt>
      <trkpt lat="42.074372" lon="-73.950798">
        <ele>31.6218475194</ele>
        <time>2024-09-15T10:26:05.000Z</time>
      </trkpt>
      <trkpt lat="42.07404" lon="-73.950619">
        <ele>30.5951106699</ele>
        <time>2024-09-15T10:26:09.000Z</time>
      </trkpt>
      <trkpt lat="42.073793" lon="-73.950529">
        <ele>29.8604459933</ele>
        <time>2024-09-15T10:26:12.000Z</time>
      </trkpt>
      <trkpt lat="42.073737" lon="-73.950517">
        <ele>29.6976382352</ele>
        <time>2024-09-15T10:26:13.000Z</time>
      </trkpt>
      <trkpt lat="42.073665" lon="-73.950542">
        <ele>29.484156902</ele>
        <time>2024-09-15T10:26:14.000Z</time>
      </trkpt>
      <trkpt lat="42.073161" lon="-73.950839">
        <ele>27.9046952133</ele>
        <time>2024-09-15T10:26:20.000Z</time>
      </trkpt>
      <trkpt lat="42.072997" lon="-73.950945">
        <ele>27.3824311551</ele>
        <time>2024-09-15T10:26:22.000Z</time>
      </trkpt>
    </trkseg>
  </trk>
</gpx>

<!--
Performance optimized by W3 Total Cache. Learn more: https://www.boldgrid.com/w3-total-cache/?utm_source=w3tc&utm_medium=footer_comment&utm_campaign=free_plugin

Page Caching using Disk: Enhanced{w3tc_pagecache_reject_reason} 

Served from: www.aquabike.world @ 2026-05-11 00:34:17 by W3 Total Cache
-->